Observation data for Snyder SSW on 03/11/2018      Previous  Date  Next       Current Mesonet Observations  Soil Data  Daily Summary Page  Observations in Plain Language
KWT1 110600Z 34003KT 18/M08 A2982 RMK A01 T01811077  RH  017%=      5-min Rain = 0
KWT1 110601Z 33002KT 18/M08 A2982 RMK A01 T01811076  RH  017%=      5-min Rain = 0
KWT1 110602Z 35003KT 18/M08 A2982 RMK A01 T01811076  RH  017%=      5-min Rain = 0
KWT1 110603Z 34004KT 18/M08 A2982 RMK A01 T01811077  RH  017%=      5-min Rain = 0
KWT1 110604Z 34004KT 18/M08 A2982 RMK A01 T01821077  RH  017%=      5-min Rain = 0
KWT1 110605Z 32004KT 18/M08 A2982 RMK A01 T01821077  RH  016%=      5-min Rain = 0
KWT1 110606Z 31004KT 18/M08 A2982 RMK A01 T01821077  RH  016%=      5-min Rain = 0
KWT1 110607Z 32004KT 18/M08 A2982 RMK A01 T01801079  RH  016%=      5-min Rain = 0
KWT1 110608Z 32004KT 18/M08 A2982 RMK A01 T01781079  RH  017%=      5-min Rain = 0
KWT1 110609Z 33004KT 18/M08 A2982 RMK A01 T01781079  RH  017%=      5-min Rain = 0
KWT1 110610Z 33004KT 18/M08 A2982 RMK A01 T01771079  RH  017%=      5-min Rain = 0
KWT1 110611Z 33004KT 18/M08 A2982 RMK A01 T01771079  RH  017%=      5-min Rain = 0
KWT1 110612Z 33004KT 18/M08 A2982 RMK A01 T01781078  RH  017%=      5-min Rain = 0
KWT1 110613Z 33004KT 18/M08 A2982 RMK A01 T01781079  RH  017%=      5-min Rain = 0
KWT1 110614Z 33005KT 18/M08 A2982 RMK A01 T01791079  RH  017%=      5-min Rain = 0
KWT1 110615Z 34006KT 18/M08 A2982 RMK A01 T01791079  RH  017%=      5-min Rain = 0
KWT1 110616Z 34006KT 18/M08 A2982 RMK A01 T01791079  RH  017%=      5-min Rain = 0
KWT1 110617Z 33007KT 18/M08 A2982 RMK A01 T01781079  RH  017%=      5-min Rain = 0
KWT1 110618Z 35006KT 18/M08 A2982 RMK A01 T01771079  RH  017%=      5-min Rain = 0
KWT1 110619Z 01007KT 17/M08 A2982 RMK A01 T01741079  RH  017%=      5-min Rain = 0
KWT1 110620Z 01011KT 17/M08 A2983 RMK A01 T01691080  RH  017%=      5-min Rain = 0
KWT1 110621Z 00010KT 16/M08 A2983 RMK A01 T01631078  RH  018%=      5-min Rain = 0
KWT1 110622Z 36009KT 16/M08 A2983 RMK A01 T01611077  RH  019%=      5-min Rain = 0
KWT1 110623Z 35009KT 16/M08 A2983 RMK A01 T01621075  RH  019%=      5-min Rain = 0
KWT1 110624Z 35008KT 16/M07 A2983 RMK A01 T01631074  RH  019%=      5-min Rain = 0
KWT1 110625Z 35009KT 16/M07 A2983 RMK A01 T01641074  RH  019%=      5-min Rain = 0
KWT1 110626Z 35008KT 16/M07 A2983 RMK A01 T01641073  RH  019%=      5-min Rain = 0
KWT1 110627Z 34007KT 16/M07 A2983 RMK A01 T01631074  RH  019%=      5-min Rain = 0
KWT1 110628Z 33006KT 16/M07 A2983 RMK A01 T01621074  RH  019%=      5-min Rain = 0
KWT1 110629Z 33007KT 16/M08 A2983 RMK A01 T01621075  RH  019%=      5-min Rain = 0
KWT1 110630Z 33008KT 16/M08 A2983 RMK A01 T01611075  RH  019%=      5-min Rain = 0
KWT1 110631Z 34009KT 16/M08 A2984 RMK A01 T01621075  RH  019%=      5-min Rain = 0
KWT1 110632Z 34010KT 16/M08 A2984 RMK A01 T01641075  RH  019%=      5-min Rain = 0
KWT1 110633Z 34009KT 17/M08 A2983 RMK A01 T01651076  RH  018%=      5-min Rain = 0
KWT1 110634Z 34009KT 17/M08 A2983 RMK A01 T01661076  RH  018%=      5-min Rain = 0
KWT1 110635Z 34010KT 17/M08 A2983 RMK A01 T01651077  RH  018%=      5-min Rain = 0
KWT1 110636Z 34010KT 17/M08 A2984 RMK A01 T01651077  RH  018%=      5-min Rain = 0
KWT1 110637Z 34011KT 17/M08 A2984 RMK A01 T01651078  RH  018%=      5-min Rain = 0
KWT1 110638Z 34011KT 17/M08 A2984 RMK A01 T01651078  RH  018%=      5-min Rain = 0
KWT1 110639Z 34010KT 17/M08 A2984 RMK A01 T01661078  RH  018%=      5-min Rain = 0
KWT1 110640Z 35010KT 17/M08 A2984 RMK A01 T01671079  RH  018%=      5-min Rain = 0
KWT1 110641Z 35009KT 17/M08 A2984 RMK A01 T01691080  RH  017%=      5-min Rain = 0
KWT1 110642Z 35010KT 17/M08 A2984 RMK A01 T01691080  RH  017%=      5-min Rain = 0
KWT1 110643Z 36009KT 17/M08 A2984 RMK A01 T01691081  RH  017%=      5-min Rain = 0
KWT1 110644Z 36009KT 17/M08 A2984 RMK A01 T01681081  RH  017%=      5-min Rain = 0
KWT1 110645Z 36007KT 17/M08 A2984 RMK A01 T01671080  RH  018%=      5-min Rain = 0
KWT1 110646Z 00007KT 17/M08 A2984 RMK A01 T01651080  RH  018%=      5-min Rain = 0
KWT1 110647Z 36007KT 17/M08 A2984 RMK A01 T01651079  RH  018%=      5-min Rain = 0
KWT1 110648Z 36008KT 17/M08 A2984 RMK A01 T01651078  RH  018%=      5-min Rain = 0
KWT1 110649Z 36009KT 16/M08 A2984 RMK A01 T01641078  RH  018%=      5-min Rain = 0
KWT1 110650Z 36009KT 16/M08 A2984 RMK A01 T01631077  RH  019%=      5-min Rain = 0
KWT1 110651Z 36009KT 16/M08 A2984 RMK A01 T01641076  RH  019%=      5-min Rain = 0
KWT1 110652Z 36010KT 16/M08 A2984 RMK A01 T01641075  RH  019%=      5-min Rain = 0
KWT1 110653Z 35011KT 17/M07 A2984 RMK A01 T01651074  RH  019%=      5-min Rain = 0
KWT1 110654Z 35010KT 17/M07 A2985 RMK A01 T01651074  RH  019%=      5-min Rain = 0
KWT1 110655Z 35010KT 17/M07 A2985 RMK A01 T01651074  RH  019%=      5-min Rain = 0
KWT1 110656Z 36011KT 17/M07 A2985 RMK A01 T01661072  RH  019%=      5-min Rain = 0
KWT1 110657Z 36010KT 17/M07 A2985 RMK A01 T01671070  RH  019%=      5-min Rain = 0
KWT1 110658Z 36010KT 17/M07 A2985 RMK A01 T01671069  RH  019%=      5-min Rain = 0
KWT1 110659Z 36012KT 17/M07 A2986 RMK A01 T01681067  RH  019%=      5-min Rain = 0
KWT1 110700Z 35012KT 17/M07 A2986 RMK A01 T01671066  RH  020%=      5-min Rain = 0
KWT1 110701Z 35011KT 17/M07 A2986 RMK A01 T01681065  RH  020%=      5-min Rain = 0
KWT1 110702Z 35010KT 17/M06 A2986 RMK A01 T01681064  RH  020%=      5-min Rain = 0
KWT1 110703Z 00010KT 17/M06 A2986 RMK A01 T01681062  RH  020%=      5-min Rain = 0
KWT1 110704Z 36010KT 17/M06 A2987 RMK A01 T01671060  RH  021%=      5-min Rain = 0
KWT1 110705Z 35010KT 17/M06 A2987 RMK A01 T01671057  RH  021%=      5-min Rain = 0
KWT1 110706Z 35010KT 17/M05 A2987 RMK A01 T01671053  RH  022%=      5-min Rain = 0
KWT1 110707Z 36010KT 17/M05 A2987 RMK A01 T01671048  RH  022%=      5-min Rain = 0
KWT1 110708Z 01012KT 17/M05 A2987 RMK A01 T01661047  RH  023%=      5-min Rain = 0
KWT1 110709Z 01011KT 17/M04 A2987 RMK A01 T01661044  RH  023%=      5-min Rain = 0
KWT1 110710Z 01011KT 17/M04 A2987 RMK A01 T01661040  RH  024%=      5-min Rain = 0
KWT1 110711Z 01013KT 17/M04 A2987 RMK A01 T01661035  RH  025%=      5-min Rain = 0
KWT1 110712Z 01011KT 17/M03 A2988 RMK A01 T01661032  RH  026%=      5-min Rain = 0
KWT1 110713Z 02014KT 17/M03 A2988 RMK A01 T01661028  RH  026%=      5-min Rain = 0
KWT1 110714Z 02013KT 17/M02 A2988 RMK A01 T01671023  RH  027%=      5-min Rain = 0
KWT1 110715Z 02012KT 17/M02 A2988 RMK A01 T01681022  RH  027%=      5-min Rain = 0
KWT1 110716Z 02014KT 17/M02 A2988 RMK A01 T01681021  RH  028%=      5-min Rain = 0
KWT1 110717Z 02013KT 17/M02 A2988 RMK A01 T01691020  RH  028%=      5-min Rain = 0
KWT1 110718Z 02014KT 17/M02 A2988 RMK A01 T01691021  RH  027%=      5-min Rain = 0
KWT1 110719Z 02015KT 17/M02 A2989 RMK A01 T01701024  RH  027%=      5-min Rain = 0
KWT1 110720Z 01015KT 17/M03 A2989 RMK A01 T01711029  RH  025%=      5-min Rain = 0
KWT1 110721Z 01016KT 17/M03 A2989 RMK A01 T01711032  RH  025%=      5-min Rain = 0
KWT1 110722Z 00014KT 17/M03 A2989 RMK A01 T01711033  RH  024%=      5-min Rain = 0
KWT1 110723Z 00014KT 17/M03 A2989 RMK A01 T01711034  RH  024%=      5-min Rain = 0
KWT1 110724Z 00013KT 17/M03 A2989 RMK A01 T01701034  RH  024%=      5-min Rain = 0
KWT1 110725Z 00013KT 17/M04 A299 RMK A01 T01701035  RH  024%=      5-min Rain = 0
KWT1 110726Z 01011KT 17/M04 A299 RMK A01 T01691035  RH  025%=      5-min Rain = 0
KWT1 110727Z 01012KT 17/M04 A299 RMK A01 T01691035  RH  025%=      5-min Rain = 0
KWT1 110728Z 01014KT 17/M03 A299 RMK A01 T01691034  RH  025%=      5-min Rain = 0
KWT1 110729Z 01020KT 17/M04 A2991 RMK A01 T01681035  RH  025%=      5-min Rain = 0
KWT1 110730Z 00016G21KT 17/M03 A299 RMK A01 T01691033  RH  025%=      5-min Rain = 0
KWT1 110731Z 01016KT 17/M03 A2991 RMK A01 T01701033  RH  025%=      5-min Rain = 0
KWT1 110732Z 01016KT 17/M03 A2991 RMK A01 T01701033  RH  025%=      5-min Rain = 0
KWT1 110733Z 02021KT 17/M03 A2991 RMK A01 T01681030  RH  025%=      5-min Rain = 0
KWT1 110734Z 02020G25KT 17/M03 A2991 RMK A01 T01681026  RH  026%=      5-min Rain = 0
KWT1 110735Z 01020KT 17/M03 A2991 RMK A01 T01671025  RH  027%=      5-min Rain = 0
KWT1 110736Z 01022G28KT 17/M02 A2991 RMK A01 T01661021  RH  028%=      5-min Rain = 0
KWT1 110737Z 01024KT 17/M01 A2991 RMK A01 T01651014  RH  029%=      5-min Rain = 0
KWT1 110738Z 01022G28KT 17/M01 A2991 RMK A01 T01651009  RH  030%=      5-min Rain = 0
KWT1 110739Z 02016G22KT 16/M01 A2991 RMK A01 T01641009  RH  031%=      5-min Rain = 0
KWT1 110740Z 02019KT 16/M01 A2991 RMK A01 T01631006  RH  032%=      5-min Rain = 0
KWT1 110741Z 02019G25KT 16/00 A2991 RMK A01 T01620002  RH  034%=      5-min Rain = 0
KWT1 110742Z 02022G29KT 16/01 A2991 RMK A01 T01620011  RH  036%=      5-min Rain = 0
KWT1 110743Z 03018G24KT 16/02 A2991 RMK A01 T01610022  RH  039%=      5-min Rain = 0
KWT1 110744Z 02020KT 16/02 A2991 RMK A01 T01610024  RH  040%=      5-min Rain = 0
KWT1 110745Z 03019G25KT 16/03 A2991 RMK A01 T01600026  RH  040%=      5-min Rain = 0
KWT1 110746Z 03018G26KT 16/03 A2991 RMK A01 T01600027  RH  041%=      5-min Rain = 0
KWT1 110747Z 02019G25KT 16/03 A2991 RMK A01 T01590030  RH  042%=      5-min Rain = 0
KWT1 110748Z 02020KT 16/03 A2991 RMK A01 T01590034  RH  043%=      5-min Rain = 0
KWT1 110749Z 02020G25KT 16/04 A2991 RMK A01 T01590037  RH  044%=      5-min Rain = 0
KWT1 110750Z 02020KT 16/04 A2991 RMK A01 T01580040  RH  045%=      5-min Rain = 0
KWT1 110751Z 02019G26KT 16/04 A2991 RMK A01 T01580043  RH  046%=      5-min Rain = 0
KWT1 110752Z 02017KT 16/05 A2991 RMK A01 T01580047  RH  048%=      5-min Rain = 0
KWT1 110753Z 02017KT 16/05 A2991 RMK A01 T01580048  RH  048%=      5-min Rain = 0
KWT1 110754Z 01018KT 16/05 A2991 RMK A01 T01570049  RH  049%=      5-min Rain = 0
KWT1 110755Z 02017G22KT 16/05 A2991 RMK A01 T01570053  RH  050%=      5-min Rain = 0
KWT1 110756Z 02018G23KT 16/06 A2991 RMK A01 T01560056  RH  051%=      5-min Rain = 0
KWT1 110757Z 02018KT 16/06 A2992 RMK A01 T01560060  RH  053%=      5-min Rain = 0
KWT1 110758Z 02016G23KT 16/06 A2992 RMK A01 T01560061  RH  053%=      5-min Rain = 0
KWT1 110759Z 01019KT 16/06 A2992 RMK A01 T01560062  RH  053%=      5-min Rain = 0
KWT1 110800Z 01019G25KT 16/07 A2992 RMK A01 T01560065  RH  055%=      5-min Rain = 0
KWT1 110801Z 01017KT 16/07 A2992 RMK A01 T01550066  RH  055%=      5-min Rain = 0
KWT1 110802Z 00015KT 16/07 A2992 RMK A01 T01560066  RH  055%=      5-min Rain = 0
KWT1 110803Z 01015KT 16/07 A2992 RMK A01 T01550066  RH  055%=      5-min Rain = 0
KWT1 110804Z 00017KT 16/07 A2992 RMK A01 T01550067  RH  056%=      5-min Rain = 0
KWT1 110805Z 00015KT 16/07 A2992 RMK A01 T01550068  RH  056%=      5-min Rain = 0
KWT1 110806Z 00015KT 16/07 A2992 RMK A01 T01550068  RH  056%=      5-min Rain = 0
KWT1 110807Z 00014KT 15/07 A2992 RMK A01 T01540068  RH  056%=      5-min Rain = 0
KWT1 110808Z 01019G24KT 15/07 A2992 RMK A01 T01540069  RH  057%=      5-min Rain = 0
KWT1 110809Z 01016KT 15/07 A2992 RMK A01 T01540072  RH  058%=      5-min Rain = 0
KWT1 110810Z 01015KT 15/07 A2992 RMK A01 T01540072  RH  058%=      5-min Rain = 0
KWT1 110811Z 01018KT 15/07 A2992 RMK A01 T01540073  RH  058%=      5-min Rain = 0
KWT1 110812Z 02020KT 15/07 A2992 RMK A01 T01540074  RH  059%=      5-min Rain = 0
KWT1 110813Z 02019KT 15/08 A2992 RMK A01 T01540075  RH  059%=      5-min Rain = 0
KWT1 110814Z 02019G24KT 16/08 A2992 RMK A01 T01550077  RH  060%=      5-min Rain = 0
KWT1 110815Z 02018KT 16/08 A2992 RMK A01 T01550078  RH  060%=      5-min Rain = 0
KWT1 110816Z 02018KT 16/08 A2992 RMK A01 T01550079  RH  060%=      5-min Rain = 0
KWT1 110817Z 02021G27KT 16/08 A2992 RMK A01 T01550079  RH  060%=      5-min Rain = 0
KWT1 110818Z 02017G24KT 16/08 A2992 RMK A01 T01550080  RH  061%=      5-min Rain = 0
KWT1 110819Z 02017KT 16/08 A2992 RMK A01 T01550080  RH  061%=      5-min Rain = 0
KWT1 110820Z 02015KT 16/08 A2992 RMK A01 T01550080  RH  061%=      5-min Rain = 0
KWT1 110821Z 02016G23KT 16/08 A2992 RMK A01 T01550081  RH  061%=      5-min Rain = 0
KWT1 110822Z 01015G21KT 15/08 A2992 RMK A01 T01540082  RH  062%=      5-min Rain = 0
KWT1 110823Z 01018KT 15/08 A2993 RMK A01 T01540082  RH  062%=      5-min Rain = 0
KWT1 110824Z 02020KT 16/08 A2993 RMK A01 T01550083  RH  062%=      5-min Rain = 0
KWT1 110825Z 02019G24KT 16/08 A2993 RMK A01 T01550084  RH  062%=      5-min Rain = 0
KWT1 110826Z 01017KT 16/08 A2993 RMK A01 T01550084  RH  063%=      5-min Rain = 0
KWT1 110827Z 02019G24KT 16/09 A2993 RMK A01 T01560085  RH  063%=      5-min Rain = 0
KWT1 110828Z 01018KT 16/09 A2993 RMK A01 T01560086  RH  063%=      5-min Rain = 0
KWT1 110829Z 02017G24KT 16/09 A2993 RMK A01 T01550086  RH  063%=      5-min Rain = 0
KWT1 110830Z 01016KT 16/09 A2994 RMK A01 T01550087  RH  064%=      5-min Rain = 0
KWT1 110831Z 01020KT 16/09 A2994 RMK A01 T01560089  RH  064%=      5-min Rain = 0
KWT1 110832Z 01020KT 16/09 A2994 RMK A01 T01560090  RH  065%=      5-min Rain = 0
KWT1 110833Z 01020KT 16/09 A2994 RMK A01 T01560091  RH  065%=      5-min Rain = 0
KWT1 110834Z 02021G27KT 16/09 A2994 RMK A01 T01560093  RH  066%=      5-min Rain = 0
KWT1 110835Z 01021G26KT 16/09 A2994 RMK A01 T01560094  RH  067%=      5-min Rain = 0
KWT1 110836Z 01020G26KT 16/10 A2994 RMK A01 T01560095  RH  067%=      5-min Rain = 0
KWT1 110837Z 02020KT 16/10 A2994 RMK A01 T01560096  RH  067%=      5-min Rain = 0
KWT1 110838Z 02018KT 16/10 A2994 RMK A01 T01560096  RH  068%=      5-min Rain = 0
KWT1 110839Z 02021KT 16/10 A2994 RMK A01 T01560097  RH  068%=      5-min Rain = 0
KWT1 110840Z 02019G25KT 16/10 A2994 RMK A01 T01550097  RH  068%=      5-min Rain = 0
KWT1 110841Z 02019G24KT 16/10 A2994 RMK A01 T01550097  RH  068%=      5-min Rain = 0
KWT1 110842Z 02018KT 16/10 A2994 RMK A01 T01560098  RH  069%=      5-min Rain = 0
KWT1 110843Z 02018KT 16/10 A2994 RMK A01 T01560099  RH  069%=      5-min Rain = 0
KWT1 110844Z 02015KT 16/10 A2994 RMK A01 T01550099  RH  069%=      5-min Rain = 0
KWT1 110845Z 01021G26KT 16/10 A2994 RMK A01 T01550100  RH  070%=      5-min Rain = 0
KWT1 110846Z 02018G24KT 16/10 A2994 RMK A01 T01550101  RH  070%=      5-min Rain = 0
KWT1 110847Z 02018KT 16/10 A2994 RMK A01 T01550101  RH  070%=      5-min Rain = 0
KWT1 110848Z 02018G23KT 15/10 A2994 RMK A01 T01540101  RH  070%=      5-min Rain = 0
KWT1 110849Z 02022G27KT 15/10 A2994 RMK A01 T01540102  RH  071%=      5-min Rain = 0
KWT1 110850Z 01023G29KT 15/10 A2994 RMK A01 T01540103  RH  071%=      5-min Rain = 0
KWT1 110851Z 02022KT 15/10 A2994 RMK A01 T01540103  RH  072%=      5-min Rain = 0
KWT1 110852Z 02024G30KT 15/10 A2994 RMK A01 T01540104  RH  072%=      5-min Rain = 0
KWT1 110853Z 02021G26KT 15/10 A2994 RMK A01 T01540104  RH  072%=      5-min Rain = 0
KWT1 110854Z 02019G25KT 15/10 A2994 RMK A01 T01540104  RH  072%=      5-min Rain = 0
KWT1 110855Z 02020G25KT 15/10 A2994 RMK A01 T01540104  RH  072%=      5-min Rain = 0
KWT1 110856Z 01021G26KT 15/10 A2994 RMK A01 T01540104  RH  072%=      5-min Rain = 0
KWT1 110857Z 01023KT 15/10 A2994 RMK A01 T01540104  RH  072%=      5-min Rain = 0
KWT1 110858Z 01019G26KT 15/10 A2994 RMK A01 T01540104  RH  072%=      5-min Rain = 0
KWT1 110859Z 02021G27KT 15/10 A2995 RMK A01 T01530103  RH  072%=      5-min Rain = 0
KWT1 110900Z 02024G30KT 15/10 A2995 RMK A01 T01530102  RH  071%=      5-min Rain = 0
KWT1 110901Z 02018G25KT 15/10 A2995 RMK A01 T01530100  RH  071%=      5-min Rain = 0
KWT1 110902Z 03021G27KT 15/10 A2995 RMK A01 T01520097  RH  070%=      5-min Rain = 0
KWT1 110903Z 02020G25KT 15/09 A2995 RMK A01 T01510093  RH  068%=      5-min Rain = 0
KWT1 110904Z 03023G28KT 15/09 A2995 RMK A01 T01510091  RH  067%=      5-min Rain = 0
KWT1 110905Z 02019G25KT 15/09 A2995 RMK A01 T01510088  RH  066%=      5-min Rain = 0
KWT1 110906Z 02018KT 15/09 A2995 RMK A01 T01500087  RH  066%=      5-min Rain = 0
KWT1 110907Z 01019G28KT 15/09 A2995 RMK A01 T01490087  RH  066%=      5-min Rain = 0
KWT1 110908Z 01024KT 15/08 A2995 RMK A01 T01490082  RH  064%=      5-min Rain = 0
KWT1 110909Z 01021G26KT 15/08 A2995 RMK A01 T01490078  RH  063%=      5-min Rain = 0
KWT1 110910Z 01021G27KT 15/08 A2995 RMK A01 T01480076  RH  062%=      5-min Rain = 0
KWT1 110911Z 02019KT 15/08 A2995 RMK A01 T01470075  RH  062%=      5-min Rain = 0
KWT1 110912Z 02018KT 15/08 A2995 RMK A01 T01470075  RH  062%=      5-min Rain = 0
KWT1 110913Z 02025G33KT 15/07 A2995 RMK A01 T01460073  RH  061%=      5-min Rain = 0
KWT1 110914Z 02026KT 15/07 A2995 RMK A01 T01470070  RH  060%=      5-min Rain = 0
KWT1 110915Z 02025G31KT 15/07 A2995 RMK A01 T01470068  RH  059%=      5-min Rain = 0
KWT1 110916Z 02022G31KT 15/07 A2995 RMK A01 T01470065  RH  058%=      5-min Rain = 0
KWT1 110917Z 02021G29KT 15/06 A2995 RMK A01 T01470064  RH  058%=      5-min Rain = 0
KWT1 110918Z 02025G30KT 15/06 A2995 RMK A01 T01460061  RH  056%=      5-min Rain = 0
KWT1 110919Z 02026G32KT 15/06 A2995 RMK A01 T01460055  RH  054%=      5-min Rain = 0
KWT1 110920Z 02025G30KT 15/05 A2996 RMK A01 T01460049  RH  052%=      5-min Rain = 0
KWT1 110921Z 02022KT 15/05 A2996 RMK A01 T01460046  RH  051%=      5-min Rain = 0
KWT1 110922Z 02023KT 15/05 A2995 RMK A01 T01450045  RH  051%=      5-min Rain = 0
KWT1 110923Z 02020G27KT 15/04 A2996 RMK A01 T01450044  RH  051%=      5-min Rain = 0
KWT1 110924Z 01023KT 14/04 A2996 RMK A01 T01440044  RH  051%=      5-min Rain = 0
KWT1 110925Z 02023KT 14/05 A2996 RMK A01 T01440045  RH  051%=      5-min Rain = 0
KWT1 110926Z 01019G25KT 14/05 A2996 RMK A01 T01440045  RH  051%=      5-min Rain = 0
KWT1 110927Z 02025G32KT 14/04 A2996 RMK A01 T01440042  RH  050%=      5-min Rain = 0
KWT1 110928Z 02024G29KT 14/04 A2996 RMK A01 T01440036  RH  048%=      5-min Rain = 0
KWT1 110929Z 02030G36KT 14/03 A2997 RMK A01 T01440030  RH  046%=      5-min Rain = 0
KWT1 110930Z 02024G29KT 14/03 A2997 RMK A01 T01440026  RH  045%=      5-min Rain = 0
KWT1 110931Z 02024KT 14/03 A2997 RMK A01 T01430025  RH  045%=      5-min Rain = 0
KWT1 110932Z 02027G37KT 14/02 A2997 RMK A01 T01430022  RH  044%=      5-min Rain = 0
KWT1 110933Z 02026G31KT 14/02 A2997 RMK A01 T01430019  RH  043%=      5-min Rain = 0
KWT1 110934Z 02023G30KT 14/02 A2997 RMK A01 T01430019  RH  043%=      5-min Rain = 0
KWT1 110935Z 02026G32KT 14/02 A2997 RMK A01 T01430018  RH  043%=      5-min Rain = 0
KWT1 110936Z 01024G29KT 14/02 A2998 RMK A01 T01420018  RH  043%=      5-min Rain = 0
KWT1 110937Z 01026G32KT 14/02 A2998 RMK A01 T01420016  RH  042%=      5-min Rain = 0
KWT1 110938Z 01025G32KT 14/01 A2998 RMK A01 T01410014  RH  042%=      5-min Rain = 0
KWT1 110939Z 01026G32KT 14/01 A2998 RMK A01 T01410013  RH  042%=      5-min Rain = 0
KWT1 110940Z 01023G30KT 14/01 A2998 RMK A01 T01410012  RH  041%=      5-min Rain = 0
KWT1 110941Z 01026G34KT 14/01 A2998 RMK A01 T01400010  RH  041%=      5-min Rain = 0
KWT1 110942Z 02026G31KT 14/01 A2998 RMK A01 T01390007  RH  040%=      5-min Rain = 0
KWT1 110943Z 02024KT 14/01 A2998 RMK A01 T01390005  RH  040%=      5-min Rain = 0
KWT1 110944Z 02028KT 14/01 A2998 RMK A01 T01390005  RH  040%=      5-min Rain = 0
KWT1 110945Z 01024G34KT 14/00 A2998 RMK A01 T01380004  RH  040%=      5-min Rain = 0
KWT1 110946Z 02023G28KT 14/00 A2998 RMK A01 T01380003  RH  039%=      5-min Rain = 0
KWT1 110947Z 01021G29KT 14/00 A2998 RMK A01 T01370001  RH  039%=      5-min Rain = 0
KWT1 110948Z 02023KT 14/00 A2998 RMK A01 T01370001  RH  039%=      5-min Rain = 0
KWT1 110949Z 03026G33KT 14/00 A2998 RMK A01 T01370000  RH  039%=      5-min Rain = 0
KWT1 110950Z 03020G27KT 14/M00 A2997 RMK A01 T01361001  RH  039%=      5-min Rain = 0
KWT1 110951Z 02025KT 14/M00 A2997 RMK A01 T01361002  RH  039%=      5-min Rain = 0
KWT1 110952Z 02024KT 14/M00 A2998 RMK A01 T01361002  RH  039%=      5-min Rain = 0
KWT1 110953Z 02019G25KT 14/M00 A2998 RMK A01 T01361002  RH  039%=      5-min Rain = 0
KWT1 110954Z 02018G24KT 14/M00 A2998 RMK A01 T01351002  RH  039%=      5-min Rain = 0
KWT1 110955Z 02018G24KT 13/M00 A2998 RMK A01 T01341003  RH  039%=      5-min Rain = 0
KWT1 110956Z 03025G34KT 13/M00 A2998 RMK A01 T01341003  RH  039%=      5-min Rain = 0
KWT1 110957Z 02021G29KT 13/M00 A2998 RMK A01 T01341004  RH  039%=      5-min Rain = 0
KWT1 110958Z 02019G24KT 13/M00 A2998 RMK A01 T01341004  RH  039%=      5-min Rain = 0
KWT1 110959Z 02023KT 13/M01 A2998 RMK A01 T01331005  RH  039%=      5-min Rain = 0
KWT1 111000Z 02025G30KT 13/M01 A2998 RMK A01 T01331006  RH  038%=      5-min Rain = 0
KWT1 111001Z 02025G30KT 13/M01 A2998 RMK A01 T01341007  RH  038%=      5-min Rain = 0
KWT1 111002Z 02022G30KT 13/M01 A2999 RMK A01 T01341006  RH  038%=      5-min Rain = 0
KWT1 111003Z 03022KT 13/M01 A2999 RMK A01 T01341007  RH  038%=      5-min Rain = 0
KWT1 111004Z 02021G26KT 13/M01 A2999 RMK A01 T01331007  RH  038%=      5-min Rain = 0
KWT1 111005Z 02017KT 13/M01 A2999 RMK A01 T01331008  RH  038%=      5-min Rain = 0
KWT1 111006Z 03021G26KT 13/M01 A2999 RMK A01 T01321008  RH  038%=      5-min Rain = 0
KWT1 111007Z 02020KT 13/M01 A2999 RMK A01 T01321008  RH  038%=      5-min Rain = 0
KWT1 111008Z 02021KT 13/M01 A2999 RMK A01 T01321008  RH  038%=      5-min Rain = 0
KWT1 111009Z 02019KT 13/M01 A2999 RMK A01 T01321008  RH  038%=      5-min Rain = 0
KWT1 111010Z 02018G24KT 13/M01 A2999 RMK A01 T01311009  RH  038%=      5-min Rain = 0
KWT1 111011Z 01024G31KT 13/M01 A2999 RMK A01 T01311009  RH  038%=      5-min Rain = 0
KWT1 111012Z 02025G30KT 13/M01 A2999 RMK A01 T01311009  RH  038%=      5-min Rain = 0
KWT1 111013Z 02025KT 13/M01 A2999 RMK A01 T01311010  RH  038%=      5-min Rain = 0
KWT1 111014Z 02028G33KT 13/M01 A2999 RMK A01 T01321010  RH  038%=      5-min Rain = 0
KWT1 111015Z 03026G31KT 13/M01 A2999 RMK A01 T01321010  RH  037%=      5-min Rain = 0
KWT1 111016Z 03023KT 13/M01 A2999 RMK A01 T01321010  RH  037%=      5-min Rain = 0
KWT1 111017Z 02025G34KT 13/M01 A2999 RMK A01 T01321011  RH  037%=      5-min Rain = 0
KWT1 111018Z 03024G29KT 13/M01 A2999 RMK A01 T01321011  RH  037%=      5-min Rain = 0
KWT1 111019Z 02025G30KT 13/M01 A2999 RMK A01 T01321011  RH  037%=      5-min Rain = 0
KWT1 111020Z 02021G28KT 13/M01 A30 RMK A01 T01321011  RH  037%=      5-min Rain = 0
KWT1 111021Z 02024KT 13/M01 A30 RMK A01 T01311012  RH  037%=      5-min Rain = 0
KWT1 111022Z 02021G26KT 13/M01 A30 RMK A01 T01311012  RH  037%=      5-min Rain = 0
KWT1 111023Z 03021G27KT 13/M01 A2999 RMK A01 T01311012  RH  037%=      5-min Rain = 0
KWT1 111024Z 02021G26KT 13/M01 A30 RMK A01 T01311011  RH  037%=      5-min Rain = 0
KWT1 111025Z 03023G34KT 13/M01 A2999 RMK A01 T01301011  RH  037%=      5-min Rain = 0
KWT1 111026Z 03028G33KT 13/M01 A30 RMK A01 T01301012  RH  037%=      5-min Rain = 0
KWT1 111027Z 02025G32KT 13/M01 A30 RMK A01 T01301012  RH  037%=      5-min Rain = 0
KWT1 111028Z 02028G35KT 13/M01 A30 RMK A01 T01301012  RH  037%=      5-min Rain = 0
KWT1 111029Z 02027G33KT 13/M01 A30 RMK A01 T01301012  RH  037%=      5-min Rain = 0
KWT1 111030Z 02024G31KT 13/M01 A30 RMK A01 T01311012  RH  037%=      5-min Rain = 0
KWT1 111031Z 02022G29KT 13/M01 A30 RMK A01 T01311012  RH  037%=      5-min Rain = 0
KWT1 111032Z 02026G31KT 13/M01 A30 RMK A01 T01301012  RH  037%=      5-min Rain = 0
KWT1 111033Z 02029KT 13/M01 A30 RMK A01 T01301013  RH  037%=      5-min Rain = 0
KWT1 111034Z 02024G30KT 13/M01 A30 RMK A01 T01311013  RH  037%=      5-min Rain = 0
KWT1 111035Z 02019G26KT 13/M01 A30 RMK A01 T01311013  RH  037%=      5-min Rain = 0
KWT1 111036Z 02027G33KT 13/M01 A30 RMK A01 T01311013  RH  037%=      5-min Rain = 0
KWT1 111037Z 03030KT 13/M01 A30 RMK A01 T01301013  RH  037%=      5-min Rain = 0
KWT1 111038Z 03025KT 13/M01 A30 RMK A01 T01311013  RH  037%=      5-min Rain = 0
KWT1 111039Z 02026G34KT 13/M01 A30 RMK A01 T01311013  RH  037%=      5-min Rain = 0
KWT1 111040Z 03027G32KT 13/M01 A30 RMK A01 T01301013  RH  037%=      5-min Rain = 0
KWT1 111041Z 03021G28KT 13/M01 A30 RMK A01 T01311013  RH  037%=      5-min Rain = 0
KWT1 111042Z 03020G28KT 13/M01 A30 RMK A01 T01301013  RH  037%=      5-min Rain = 0
KWT1 111043Z 02025G32KT 13/M01 A30 RMK A01 T01301013  RH  037%=      5-min Rain = 0
KWT1 111044Z 02024G29KT 13/M01 A30 RMK A01 T01301013  RH  037%=      5-min Rain = 0
KWT1 111045Z 03021G27KT 13/M01 A30 RMK A01 T01301013  RH  037%=      5-min Rain = 0
KWT1 111046Z 03020G26KT 13/M01 A3001 RMK A01 T01301013  RH  037%=      5-min Rain = 0
KWT1 111047Z 02023KT 13/M01 A3001 RMK A01 T01301013  RH  037%=      5-min Rain = 0
KWT1 111048Z 02021G27KT 13/M01 A30 RMK A01 T01291013  RH  037%=      5-min Rain = 0
KWT1 111049Z 02018G24KT 13/M01 A30 RMK A01 T01291013  RH  037%=      5-min Rain = 0
KWT1 111050Z 02021G26KT 13/M01 A3001 RMK A01 T01291013  RH  037%=      5-min Rain = 0
KWT1 111051Z 02022KT 13/M01 A3001 RMK A01 T01291013  RH  037%=      5-min Rain = 0
KWT1 111052Z 02025KT 13/M01 A3001 RMK A01 T01291014  RH  037%=      5-min Rain = 0
KWT1 111053Z 03025G31KT 13/M01 A3001 RMK A01 T01291014  RH  037%=      5-min Rain = 0
KWT1 111054Z 02025G31KT 13/M01 A3001 RMK A01 T01291014  RH  037%=      5-min Rain = 0
KWT1 111055Z 02030G35KT 13/M01 A3001 RMK A01 T01291014  RH  037%=      5-min Rain = 0
KWT1 111056Z 03025G34KT 13/M01 A3001 RMK A01 T01291014  RH  037%=      5-min Rain = 0
KWT1 111057Z 02030G38KT 13/M01 A3001 RMK A01 T01301014  RH  037%=      5-min Rain = 0
KWT1 111058Z 02024KT 13/M01 A3001 RMK A01 T01291014  RH  037%=      5-min Rain = 0
KWT1 111059Z 02024G30KT 13/M01 A3001 RMK A01 T01301014  RH  037%=      5-min Rain = 0
KWT1 111100Z 02023G30KT 13/M01 A3001 RMK A01 T01291014  RH  037%=      5-min Rain = 0
KWT1 111101Z 03021G27KT 13/M01 A3001 RMK A01 T01291014  RH  037%=      5-min Rain = 0
KWT1 111102Z 03024KT 13/M01 A3002 RMK A01 T01291014  RH  037%=      5-min Rain = 0
KWT1 111103Z 02022G27KT 13/M01 A3001 RMK A01 T01291014  RH  037%=      5-min Rain = 0
KWT1 111104Z 02022KT 13/M02 A3002 RMK A01 T01281015  RH  037%=      5-min Rain = 0
KWT1 111105Z 03020G27KT 13/M01 A3002 RMK A01 T01291014  RH  037%=      5-min Rain = 0
KWT1 111106Z 03019G29KT 13/M01 A3002 RMK A01 T01281014  RH  037%=      5-min Rain = 0
KWT1 111107Z 03025G32KT 13/M01 A3002 RMK A01 T01281014  RH  037%=      5-min Rain = 0
KWT1 111108Z 02023G31KT 13/M01 A3002 RMK A01 T01281014  RH  037%=      5-min Rain = 0
KWT1 111109Z 02024G29KT 13/M01 A3002 RMK A01 T01291014  RH  037%=      5-min Rain = 0
KWT1 111110Z 02027G33KT 13/M02 A3002 RMK A01 T01281015  RH  037%=      5-min Rain = 0
KWT1 111111Z 03026G32KT 13/M01 A3002 RMK A01 T01291014  RH  037%=      5-min Rain = 0
KWT1 111112Z 03019G24KT 13/M01 A3002 RMK A01 T01281014  RH  037%=      5-min Rain = 0
KWT1 111113Z 03021KT 13/M01 A3002 RMK A01 T01281014  RH  037%=      5-min Rain = 0
KWT1 111114Z 02021KT 13/M01 A3002 RMK A01 T01281014  RH  037%=      5-min Rain = 0
KWT1 111115Z 03022G27KT 13/M01 A3002 RMK A01 T01281014  RH  037%=      5-min Rain = 0
KWT1 111116Z 03023G28KT 13/M01 A3002 RMK A01 T01281014  RH  037%=      5-min Rain = 0
KWT1 111117Z 03022G28KT 13/M01 A3002 RMK A01 T01281014  RH  037%=      5-min Rain = 0
KWT1 111118Z 03020KT 13/M01 A3002 RMK A01 T01271014  RH  037%=      5-min Rain = 0
KWT1 111119Z 03023KT 13/M01 A3002 RMK A01 T01271014  RH  038%=      5-min Rain = 0
KWT1 111120Z 02025G30KT 13/M01 A3003 RMK A01 T01271014  RH  038%=      5-min Rain = 0
KWT1 111121Z 02024G31KT 13/M01 A3003 RMK A01 T01271014  RH  038%=      5-min Rain = 0
KWT1 111122Z 02022G29KT 13/M01 A3003 RMK A01 T01271014  RH  038%=      5-min Rain = 0
KWT1 111123Z 03021KT 13/M01 A3003 RMK A01 T01271014  RH  037%=      5-min Rain = 0
KWT1 111124Z 03022KT 13/M01 A3003 RMK A01 T01271014  RH  038%=      5-min Rain = 0
KWT1 111125Z 02020G25KT 13/M01 A3003 RMK A01 T01271014  RH  038%=      5-min Rain = 0
KWT1 111126Z 02022G30KT 13/M01 A3003 RMK A01 T01261014  RH  038%=      5-min Rain = 0
KWT1 111127Z 02025G31KT 13/M01 A3003 RMK A01 T01261014  RH  038%=      5-min Rain = 0
KWT1 111128Z 03021G26KT 13/M01 A3003 RMK A01 T01261014  RH  038%=      5-min Rain = 0
KWT1 111129Z 02023G29KT 13/M01 A3003 RMK A01 T01261014  RH  038%=      5-min Rain = 0
KWT1 111130Z 02020G25KT 13/M02 A3003 RMK A01 T01261015  RH  038%=      5-min Rain = 0
KWT1 111131Z 02027G32KT 13/M02 A3003 RMK A01 T01261015  RH  038%=      5-min Rain = 0
KWT1 111132Z 03025G30KT 13/M02 A3003 RMK A01 T01261015  RH  038%=      5-min Rain = 0
KWT1 111133Z 03023G28KT 13/M02 A3003 RMK A01 T01261015  RH  038%=      5-min Rain = 0
KWT1 111134Z 03026G31KT 13/M02 A3004 RMK A01 T01261015  RH  038%=      5-min Rain = 0
KWT1 111135Z 03024KT 13/M02 A3003 RMK A01 T01261015  RH  038%=      5-min Rain = 0
KWT1 111136Z 03017G22KT 13/M02 A3003 RMK A01 T01261015  RH  038%=      5-min Rain = 0
KWT1 111137Z 02019G24KT 13/M02 A3004 RMK A01 T01251015  RH  038%=      5-min Rain = 0
KWT1 111138Z 02024G30KT 12/M02 A3004 RMK A01 T01241016  RH  038%=      5-min Rain = 0
KWT1 111139Z 02021KT 13/M02 A3004 RMK A01 T01251015  RH  038%=      5-min Rain = 0
KWT1 111140Z 02023G28KT 13/M02 A3004 RMK A01 T01251016  RH  038%=      5-min Rain = 0
KWT1 111141Z 03017KT 13/M02 A3004 RMK A01 T01251016  RH  038%=      5-min Rain = 0
KWT1 111142Z 03021G27KT 13/M02 A3004 RMK A01 T01251016  RH  038%=      5-min Rain = 0
KWT1 111143Z 02020G26KT 12/M02 A3004 RMK A01 T01241016  RH  038%=      5-min Rain = 0
KWT1 111144Z 03018KT 12/M02 A3004 RMK A01 T01241016  RH  038%=      5-min Rain = 0
KWT1 111145Z 03020KT 12/M02 A3004 RMK A01 T01241016  RH  038%=      5-min Rain = 0
KWT1 111146Z 04021KT 12/M02 A3004 RMK A01 T01241017  RH  038%=      5-min Rain = 0
KWT1 111147Z 03021KT 12/M02 A3004 RMK A01 T01241017  RH  037%=      5-min Rain = 0
KWT1 111148Z 02019G24KT 12/M02 A3003 RMK A01 T01241017  RH  037%=      5-min Rain = 0
KWT1 111149Z 02017G26KT 12/M02 A3003 RMK A01 T01241017  RH  037%=      5-min Rain = 0
KWT1 111150Z 03022G27KT 12/M02 A3003 RMK A01 T01241018  RH  037%=      5-min Rain = 0
KWT1 111151Z 03021KT 12/M02 A3004 RMK A01 T01241018  RH  037%=      5-min Rain = 0
KWT1 111152Z 03017G23KT 12/M02 A3004 RMK A01 T01241018  RH  037%=      5-min Rain = 0
KWT1 111153Z 03023G31KT 12/M02 A3004 RMK A01 T01241019  RH  037%=      5-min Rain = 0
KWT1 111154Z 02023KT 12/M02 A3004 RMK A01 T01241020  RH  037%=      5-min Rain = 0
KWT1 111155Z 02022KT 12/M02 A3004 RMK A01 T01241020  RH  037%=      5-min Rain = 0
KWT1 111156Z 03021KT 12/M02 A3004 RMK A01 T01241020  RH  037%=      5-min Rain = 0
KWT1 111157Z 03022G31KT 12/M02 A3004 RMK A01 T01241020  RH  037%=      5-min Rain = 0
KWT1 111158Z 03021G26KT 12/M02 A3004 RMK A01 T01241020  RH  037%=      5-min Rain = 0
KWT1 111159Z 03016KT 12/M02 A3004 RMK A01 T01241021  RH  037%=      5-min Rain = 0
KWT1 111200Z 02015G21KT 12/M02 A3005 RMK A01 T01231021  RH  037%=      5-min Rain = 0
KWT1 111201Z 03018G26KT 12/M02 A3005 RMK A01 T01231020  RH  037%=      5-min Rain = 0
KWT1 111202Z 03017KT 12/M02 A3005 RMK A01 T01221021  RH  037%=      5-min Rain = 0
KWT1 111203Z 03019G28KT 12/M02 A3005 RMK A01 T01231020  RH  037%=      5-min Rain = 0
KWT1 111204Z 02022G27KT 12/M02 A3005 RMK A01 T01231021  RH  037%=      5-min Rain = 0
KWT1 111205Z 03018KT 12/M02 A3005 RMK A01 T01231021  RH  037%=      5-min Rain = 0
KWT1 111206Z 03019G24KT 12/M02 A3005 RMK A01 T01231021  RH  037%=      5-min Rain = 0
KWT1 111207Z 03017G23KT 12/M02 A3005 RMK A01 T01231021  RH  037%=      5-min Rain = 0
KWT1 111208Z 02024G31KT 12/M02 A3005 RMK A01 T01231021  RH  037%=      5-min Rain = 0
KWT1 111209Z 02023KT 12/M02 A3005 RMK A01 T01231022  RH  036%=      5-min Rain = 0
KWT1 111210Z 03025G31KT 12/M02 A3005 RMK A01 T01231022  RH  036%=      5-min Rain = 0
KWT1 111211Z 03027KT 12/M02 A3005 RMK A01 T01231023  RH  036%=      5-min Rain = 0
KWT1 111212Z 02022KT 12/M02 A3005 RMK A01 T01241023  RH  036%=      5-min Rain = 0
KWT1 111213Z 03020G28KT 12/M02 A3005 RMK A01 T01241023  RH  036%=      5-min Rain = 0
KWT1 111214Z 02020G27KT 12/M02 A3006 RMK A01 T01231023  RH  036%=      5-min Rain = 0
KWT1 111215Z 02021G26KT 12/M02 A3006 RMK A01 T01231023  RH  036%=      5-min Rain = 0
KWT1 111216Z 02024G31KT 12/M02 A3006 RMK A01 T01231023  RH  036%=      5-min Rain = 0
KWT1 111217Z 03020G26KT 12/M02 A3006 RMK A01 T01231023  RH  036%=      5-min Rain = 0
KWT1 111218Z 03017KT 12/M02 A3006 RMK A01 T01231024  RH  036%=      5-min Rain = 0
KWT1 111219Z 03021G26KT 12/M02 A3006 RMK A01 T01221023  RH  036%=      5-min Rain = 0
KWT1 111220Z 02021G27KT 12/M02 A3006 RMK A01 T01221023  RH  036%=      5-min Rain = 0
KWT1 111221Z 03017KT 12/M02 A3006 RMK A01 T01221023  RH  036%=      5-min Rain = 0
KWT1 111222Z 02020G26KT 12/M02 A3006 RMK A01 T01221023  RH  036%=      5-min Rain = 0
KWT1 111223Z 02021G26KT 12/M02 A3006 RMK A01 T01211023  RH  036%=      5-min Rain = 0
KWT1 111224Z 02021KT 12/M02 A3006 RMK A01 T01211023  RH  036%=      5-min Rain = 0
KWT1 111225Z 02024G29KT 12/M02 A3006 RMK A01 T01211024  RH  036%=      5-min Rain = 0
KWT1 111226Z 02020KT 12/M02 A3006 RMK A01 T01211024  RH  036%=      5-min Rain = 0
KWT1 111227Z 02023G28KT 12/M02 A3006 RMK A01 T01211024  RH  036%=      5-min Rain = 0
KWT1 111228Z 02023G28KT 12/M02 A3006 RMK A01 T01211024  RH  036%=      5-min Rain = 0
KWT1 111229Z 02020G26KT 12/M02 A3006 RMK A01 T01211024  RH  036%=      5-min Rain = 0
KWT1 111230Z 03019G24KT 12/M02 A3006 RMK A01 T01211024  RH  036%=      5-min Rain = 0
KWT1 111231Z 03019G24KT 12/M02 A3006 RMK A01 T01201024  RH  037%=      5-min Rain = 0
KWT1 111232Z 03017KT 12/M02 A3007 RMK A01 T01201024  RH  037%=      5-min Rain = 0
KWT1 111233Z 03020KT 12/M02 A3006 RMK A01 T01191023  RH  037%=      5-min Rain = 0
KWT1 111234Z 03019KT 12/M02 A3007 RMK A01 T01191023  RH  037%=      5-min Rain = 0
KWT1 111235Z 02021KT 12/M02 A3007 RMK A01 T01191023  RH  037%=      5-min Rain = 0
KWT1 111236Z 02021G26KT 12/M02 A3007 RMK A01 T01191023  RH  037%=      5-min Rain = 0
KWT1 111237Z 02019G24KT 12/M02 A3007 RMK A01 T01191023  RH  037%=      5-min Rain = 0
KWT1 111238Z 02021G26KT 12/M02 A3007 RMK A01 T01191023  RH  037%=      5-min Rain = 0
KWT1 111239Z 02019KT 12/M02 A3007 RMK A01 T01191023  RH  037%=      5-min Rain = 0
KWT1 111240Z 02019G27KT 12/M02 A3007 RMK A01 T01191023  RH  037%=      5-min Rain = 0
KWT1 111241Z 02025KT 12/M02 A3007 RMK A01 T01191023  RH  037%=      5-min Rain = 0
KWT1 111242Z 03022KT 12/M02 A3007 RMK A01 T01191023  RH  037%=      5-min Rain = 0
KWT1 111243Z 03024G29KT 12/M02 A3007 RMK A01 T01191023  RH  037%=      5-min Rain = 0
KWT1 111244Z 03023G29KT 12/M02 A3007 RMK A01 T01191023  RH  037%=      5-min Rain = 0
KWT1 111245Z 03020KT 12/M02 A3007 RMK A01 T01191023  RH  037%=      5-min Rain = 0
KWT1 111246Z 03018G24KT 12/M02 A3007 RMK A01 T01191022  RH  037%=      5-min Rain = 0
KWT1 111247Z 03018KT 12/M02 A3007 RMK A01 T01181022  RH  038%=      5-min Rain = 0
KWT1 111248Z 02019G25KT 12/M02 A3008 RMK A01 T01181021  RH  038%=      5-min Rain = 0
KWT1 111249Z 03019KT 12/M02 A3008 RMK A01 T01181021  RH  038%=      5-min Rain = 0
KWT1 111250Z 02022G27KT 12/M02 A3008 RMK A01 T01181021  RH  038%=      5-min Rain = 0
KWT1 111251Z 02023G29KT 12/M02 A3008 RMK A01 T01181021  RH  038%=      5-min Rain = 0
KWT1 111252Z 03024KT 12/M02 A3008 RMK A01 T01181021  RH  038%=      5-min Rain = 0
KWT1 111253Z 03024G31KT 12/M02 A3008 RMK A01 T01181020  RH  038%=      5-min Rain = 0
KWT1 111254Z 03022G29KT 12/M02 A3008 RMK A01 T01181020  RH  038%=      5-min Rain = 0
KWT1 111255Z 02018KT 12/M02 A3008 RMK A01 T01181020  RH  038%=      5-min Rain = 0
KWT1 111256Z 02021G27KT 12/M02 A3008 RMK A01 T01181020  RH  038%=      5-min Rain = 0
KWT1 111257Z 02022KT 12/M02 A3008 RMK A01 T01181020  RH  038%=      5-min Rain = 0
KWT1 111258Z 02022KT 12/M02 A3008 RMK A01 T01171019  RH  038%=      5-min Rain = 0
KWT1 111259Z 02020G25KT 12/M02 A3009 RMK A01 T01181019  RH  039%=      5-min Rain = 0
KWT1 111300Z 02023G28KT 12/M02 A3009 RMK A01 T01181019  RH  039%=      5-min Rain = 0
KWT1 111301Z 02023G29KT 12/M02 A3009 RMK A01 T01171019  RH  038%=      5-min Rain = 0
KWT1 111302Z 02023G30KT 12/M02 A3009 RMK A01 T01171020  RH  038%=      5-min Rain = 0
KWT1 111303Z 02024KT 12/M02 A3009 RMK A01 T01171022  RH  038%=      5-min Rain = 0
KWT1 111304Z 03023G28KT 12/M02 A3009 RMK A01 T01171022  RH  038%=      5-min Rain = 0
KWT1 111305Z 03025G30KT 12/M02 A3009 RMK A01 T01161022  RH  038%=      5-min Rain = 0
KWT1 111306Z 03027G39KT 12/M02 A3009 RMK A01 T01161023  RH  038%=      5-min Rain = 0
KWT1 111307Z 02026G35KT 12/M02 A3009 RMK A01 T01161023  RH  038%=      5-min Rain = 0
KWT1 111308Z 03023KT 12/M02 A3009 RMK A01 T01161024  RH  038%=      5-min Rain = 0
KWT1 111309Z 03023G28KT 12/M02 A3009 RMK A01 T01161024  RH  038%=      5-min Rain = 0
KWT1 111310Z 03023G28KT 12/M02 A3009 RMK A01 T01151024  RH  038%=      5-min Rain = 0
KWT1 111311Z 03027G32KT 12/M02 A3009 RMK A01 T01151024  RH  038%=      5-min Rain = 0
KWT1 111312Z 02025KT 12/M02 A3009 RMK A01 T01151024  RH  038%=      5-min Rain = 0
KWT1 111313Z 03028KT 12/M03 A3009 RMK A01 T01151025  RH  037%=      5-min Rain = 0
KWT1 111314Z 02024G30KT 12/M03 A3009 RMK A01 T01151025  RH  037%=      5-min Rain = 0
KWT1 111315Z 03028G35KT 12/M03 A3009 RMK A01 T01151026  RH  037%=      5-min Rain = 0
KWT1 111316Z 02025G31KT 12/M03 A3009 RMK A01 T01151027  RH  037%=      5-min Rain = 0
KWT1 111317Z 03027G32KT 12/M03 A3009 RMK A01 T01151027  RH  037%=      5-min Rain = 0
KWT1 111318Z 02025KT 12/M03 A3009 RMK A01 T01151027  RH  037%=      5-min Rain = 0
KWT1 111319Z 03020G25KT 12/M03 A3009 RMK A01 T01151027  RH  037%=      5-min Rain = 0
KWT1 111320Z 03020G27KT 11/M03 A3009 RMK A01 T01141027  RH  037%=      5-min Rain = 0
KWT1 111321Z 03021G26KT 11/M03 A3009 RMK A01 T01141026  RH  037%=      5-min Rain = 0
KWT1 111322Z 03021G26KT 11/M03 A3009 RMK A01 T01141027  RH  037%=      5-min Rain = 0
KWT1 111323Z 03026G31KT 11/M03 A301 RMK A01 T01141027  RH  037%=      5-min Rain = 0
KWT1 111324Z 02023G28KT 11/M03 A3009 RMK A01 T01141027  RH  037%=      5-min Rain = 0
KWT1 111325Z 03025G34KT 11/M03 A301 RMK A01 T01141027  RH  037%=      5-min Rain = 0
KWT1 111326Z 03024G29KT 11/M03 A301 RMK A01 T01141027  RH  037%=      5-min Rain = 0
KWT1 111327Z 03026KT 11/M03 A301 RMK A01 T01141027  RH  037%=      5-min Rain = 0
KWT1 111328Z 03023G29KT 11/M03 A301 RMK A01 T01141027  RH  037%=      5-min Rain = 0
KWT1 111329Z 03022G28KT 11/M03 A301 RMK A01 T01141027  RH  037%=      5-min Rain = 0
KWT1 111330Z 03022G28KT 11/M03 A301 RMK A01 T01131027  RH  037%=      5-min Rain = 0
KWT1 111331Z 02018KT 11/M03 A301 RMK A01 T01131027  RH  037%=      5-min Rain = 0
KWT1 111332Z 02019G24KT 11/M03 A301 RMK A01 T01131026  RH  038%=      5-min Rain = 0
KWT1 111333Z 03024G30KT 11/M03 A301 RMK A01 T01131026  RH  038%=      5-min Rain = 0
KWT1 111334Z 02025G33KT 11/M03 A301 RMK A01 T01131027  RH  038%=      5-min Rain = 0
KWT1 111335Z 02025G32KT 11/M03 A301 RMK A01 T01131027  RH  037%=      5-min Rain = 0
KWT1 111336Z 02024G31KT 11/M03 A301 RMK A01 T01131028  RH  037%=      5-min Rain = 0
KWT1 111337Z 03025G34KT 11/M03 A3011 RMK A01 T01131028  RH  037%=      5-min Rain = 0
KWT1 111338Z 03026G32KT 11/M03 A3011 RMK A01 T01121030  RH  037%=      5-min Rain = 0
KWT1 111339Z 02024G29KT 11/M03 A3011 RMK A01 T01131030  RH  037%=      5-min Rain = 0
KWT1 111340Z 03026G33KT 11/M03 A3011 RMK A01 T01121030  RH  037%=      5-min Rain = 0
KWT1 111341Z 02025KT 11/M03 A3011 RMK A01 T01121030  RH  037%=      5-min Rain = 0
KWT1 111342Z 02026KT 11/M03 A3011 RMK A01 T01121031  RH  037%=      5-min Rain = 0
KWT1 111343Z 02025G30KT 11/M03 A3011 RMK A01 T01121031  RH  037%=      5-min Rain = 0
KWT1 111344Z 02020G28KT 11/M03 A3011 RMK A01 T01121031  RH  037%=      5-min Rain = 0
KWT1 111345Z 02024KT 11/M03 A3012 RMK A01 T01121030  RH  037%=      5-min Rain = 0
KWT1 111346Z 02021G27KT 11/M03 A3012 RMK A01 T01121030  RH  037%=      5-min Rain = 0
KWT1 111347Z 02019G25KT 11/M03 A3012 RMK A01 T01121030  RH  037%=      5-min Rain = 0
KWT1 111348Z 02018G23KT 11/M03 A3012 RMK A01 T01121030  RH  037%=      5-min Rain = 0
KWT1 111349Z 02019G24KT 11/M03 A3012 RMK A01 T01121030  RH  037%=      5-min Rain = 0
KWT1 111350Z 02019G24KT 11/M03 A3012 RMK A01 T01121030  RH  037%=      5-min Rain = 0
KWT1 111351Z 03021KT 11/M03 A3013 RMK A01 T01121030  RH  037%=      5-min Rain = 0
KWT1 111352Z 02020G29KT 11/M03 A3013 RMK A01 T01111031  RH  037%=      5-min Rain = 0
KWT1 111353Z 03020KT 11/M03 A3013 RMK A01 T01121032  RH  037%=      5-min Rain = 0
KWT1 111354Z 03019KT 11/M03 A3013 RMK A01 T01121032  RH  037%=      5-min Rain = 0
KWT1 111355Z 02019G26KT 11/M03 A3013 RMK A01 T01111031  RH  037%=      5-min Rain = 0
KWT1 111356Z 02023G29KT 11/M03 A3013 RMK A01 T01111031  RH  037%=      5-min Rain = 0
KWT1 111357Z 01023G29KT 11/M03 A3013 RMK A01 T01111032  RH  037%=      5-min Rain = 0
KWT1 111358Z 02019KT 11/M03 A3013 RMK A01 T01111031  RH  037%=      5-min Rain = 0
KWT1 111359Z 02021KT 11/M03 A3013 RMK A01 T01111031  RH  037%=      5-min Rain = 0
KWT1 111400Z 02022G31KT 11/M03 A3013 RMK A01 T01111030  RH  037%=      5-min Rain = 0
KWT1 111401Z 02027KT 11/M03 A3013 RMK A01 T01111031  RH  037%=      5-min Rain = 0
KWT1 111402Z 02026G33KT 11/M03 A3013 RMK A01 T01111031  RH  037%=      5-min Rain = 0
KWT1 111403Z 03022G29KT 11/M03 A3014 RMK A01 T01111031  RH  037%=      5-min Rain = 0
KWT1 111404Z 02025G36KT 11/M03 A3014 RMK A01 T01111031  RH  037%=      5-min Rain = 0
KWT1 111405Z 02025G32KT 11/M03 A3014 RMK A01 T01111030  RH  037%=      5-min Rain = 0
KWT1 111406Z 02023G29KT 11/M03 A3014 RMK A01 T01101031  RH  037%=      5-min Rain = 0
KWT1 111407Z 02022G27KT 11/M03 A3014 RMK A01 T01111030  RH  037%=      5-min Rain = 0
KWT1 111408Z 02022G28KT 11/M03 A3014 RMK A01 T01111030  RH  037%=      5-min Rain = 0
KWT1 111409Z 02023KT 11/M03 A3015 RMK A01 T01111030  RH  037%=      5-min Rain = 0
KWT1 111410Z 02023G29KT 11/M03 A3015 RMK A01 T01111029  RH  037%=      5-min Rain = 0
KWT1 111411Z 02023KT 11/M03 A3015 RMK A01 T01111029  RH  037%=      5-min Rain = 0
KWT1 111412Z 01021G27KT 11/M03 A3015 RMK A01 T01101030  RH  037%=      5-min Rain = 0
KWT1 111413Z 02020KT 11/M03 A3015 RMK A01 T01111030  RH  037%=      5-min Rain = 0
KWT1 111414Z 01020KT 11/M03 A3015 RMK A01 T01111030  RH  037%=      5-min Rain = 0
KWT1 111415Z 01019G24KT 11/M03 A3015 RMK A01 T01111030  RH  037%=      5-min Rain = 0
KWT1 111416Z 02017G22KT 11/M03 A3015 RMK A01 T01111030  RH  037%=      5-min Rain = 0
KWT1 111417Z 02019KT 11/M03 A3015 RMK A01 T01121030  RH  037%=      5-min Rain = 0
KWT1 111418Z 02020G26KT 11/M03 A3015 RMK A01 T01121030  RH  037%=      5-min Rain = 0
KWT1 111419Z 02022G27KT 11/M03 A3015 RMK A01 T01111030  RH  037%=      5-min Rain = 0
KWT1 111420Z 02020G29KT 11/M03 A3015 RMK A01 T01111030  RH  037%=      5-min Rain = 0
KWT1 111421Z 02020G25KT 11/M03 A3015 RMK A01 T01121029  RH  037%=      5-min Rain = 0
KWT1 111422Z 01019KT 11/M03 A3015 RMK A01 T01121028  RH  037%=      5-min Rain = 0
KWT1 111423Z 02018G25KT 11/M03 A3015 RMK A01 T01121028  RH  038%=      5-min Rain = 0
KWT1 111424Z 02021KT 11/M03 A3015 RMK A01 T01121028  RH  038%=      5-min Rain = 0
KWT1 111425Z 02019KT 11/M03 A3015 RMK A01 T01121028  RH  038%=      5-min Rain = 0
KWT1 111426Z 02021G30KT 11/M03 A3015 RMK A01 T01111027  RH  038%=      5-min Rain = 0
KWT1 111427Z 02023G33KT 11/M03 A3016 RMK A01 T01111027  RH  038%=      5-min Rain = 0
KWT1 111428Z 02025G31KT 11/M03 A3016 RMK A01 T01101026  RH  038%=      5-min Rain = 0
KWT1 111429Z 01021G27KT 11/M03 A3016 RMK A01 T01091026  RH  039%=      5-min Rain = 0
KWT1 111430Z 02022G27KT 11/M03 A3016 RMK A01 T01091025  RH  039%=      5-min Rain = 0
KWT1 111431Z 03020G27KT 11/M02 A3016 RMK A01 T01091024  RH  039%=      5-min Rain = 0
KWT1 111432Z 02024G29KT 11/M02 A3016 RMK A01 T01091023  RH  040%=      5-min Rain = 0
KWT1 111433Z 02022G27KT 11/M02 A3016 RMK A01 T01081024  RH  040%=      5-min Rain = 0
KWT1 111434Z 03024G30KT 11/M02 A3017 RMK A01 T01081024  RH  040%=      5-min Rain = 0
KWT1 111435Z 02024G30KT 11/M02 A3017 RMK A01 T01081024  RH  040%=      5-min Rain = 0
KWT1 111436Z 01023KT 11/M02 A3017 RMK A01 T01081024  RH  040%=      5-min Rain = 0
KWT1 111437Z 02021G27KT 11/M02 A3017 RMK A01 T01081024  RH  040%=      5-min Rain = 0
KWT1 111438Z 02022KT 11/M02 A3017 RMK A01 T01081024  RH  040%=      5-min Rain = 0
KWT1 111439Z 02019KT 11/M02 A3018 RMK A01 T01081024  RH  040%=      5-min Rain = 0
KWT1 111440Z 02018G23KT 11/M02 A3018 RMK A01 T01081023  RH  040%=      5-min Rain = 0
KWT1 111441Z 01018KT 11/M02 A3018 RMK A01 T01081023  RH  040%=      5-min Rain = 0
KWT1 111442Z 02015KT 11/M02 A3018 RMK A01 T01081023  RH  040%=      5-min Rain = 0
KWT1 111443Z 02020KT 11/M02 A3018 RMK A01 T01081022  RH  040%=      5-min Rain = 0
KWT1 111444Z 02021G26KT 11/M02 A3018 RMK A01 T01071023  RH  040%=      5-min Rain = 0
KWT1 111445Z 02016KT 11/M02 A3018 RMK A01 T01071023  RH  040%=      5-min Rain = 0
KWT1 111446Z 01017G22KT 11/M02 A3018 RMK A01 T01071022  RH  040%=      5-min Rain = 0
KWT1 111447Z 01018KT 11/M02 A3018 RMK A01 T01071021  RH  041%=      5-min Rain = 0
KWT1 111448Z 01017KT 11/M02 A3018 RMK A01 T01081021  RH  041%=      5-min Rain = 0
KWT1 111449Z 01022G27KT 11/M02 A3018 RMK A01 T01071021  RH  041%=      5-min Rain = 0
KWT1 111450Z 01024KT 11/M02 A3018 RMK A01 T01071021  RH  041%=      5-min Rain = 0
KWT1 111451Z 01025KT 11/M02 A3018 RMK A01 T01061021  RH  041%=      5-min Rain = 0
KWT1 111452Z 02024G32KT 11/M02 A3018 RMK A01 T01051021  RH  041%=      5-min Rain = 0
KWT1 111453Z 01027KT 10/M02 A3018 RMK A01 T01041022  RH  041%=      5-min Rain = 0
KWT1 111454Z 01025G31KT 10/M02 A3018 RMK A01 T01041022  RH  041%=      5-min Rain = 0
KWT1 111455Z 02022G28KT 10/M02 A3018 RMK A01 T01041021  RH  041%=      5-min Rain = 0
KWT1 111456Z 02022KT 10/M02 A3018 RMK A01 T01041021  RH  041%=      5-min Rain = 0
KWT1 111457Z 02024KT 10/M02 A3018 RMK A01 T01041022  RH  041%=      5-min Rain = 0
KWT1 111458Z 02026G31KT 10/M02 A3018 RMK A01 T01041022  RH  041%=      5-min Rain = 0
KWT1 111459Z 02022G27KT 10/M02 A3018 RMK A01 T01041022  RH  041%=      5-min Rain = 0
KWT1 111500Z 02024G29KT 10/M02 A3018 RMK A01 T01041022  RH  041%=      5-min Rain = 0
KWT1 111501Z 01020G25KT 10/M02 A3018 RMK A01 T01041021  RH  041%=      5-min Rain = 0
KWT1 111502Z 02023KT 11/M02 A3018 RMK A01 T01051021  RH  041%=      5-min Rain = 0
KWT1 111503Z 02023G29KT 11/M02 A3018 RMK A01 T01051022  RH  041%=      5-min Rain = 0
KWT1 111504Z 01019G24KT 11/M02 A3018 RMK A01 T01051021  RH  041%=      5-min Rain = 0
KWT1 111505Z 01021KT 11/M02 A3018 RMK A01 T01051021  RH  041%=      5-min Rain = 0
KWT1 111506Z 01022KT 11/M02 A3018 RMK A01 T01061020  RH  041%=      5-min Rain = 0
KWT1 111507Z 01020KT 11/M02 A3018 RMK A01 T01061020  RH  041%=      5-min Rain = 0
KWT1 111508Z 00022G27KT 11/M02 A3018 RMK A01 T01061020  RH  041%=      5-min Rain = 0
KWT1 111509Z 00019KT 11/M02 A3018 RMK A01 T01061021  RH  041%=      5-min Rain = 0
KWT1 111510Z 01018KT 11/M02 A3019 RMK A01 T01061020  RH  041%=      5-min Rain = 0
KWT1 111511Z 01017KT 11/M02 A3019 RMK A01 T01071020  RH  041%=      5-min Rain = 0
KWT1 111512Z 01018G24KT 11/M02 A3019 RMK A01 T01071020  RH  041%=      5-min Rain = 0
KWT1 111513Z 02019G24KT 11/M02 A3019 RMK A01 T01071020  RH  041%=      5-min Rain = 0
KWT1 111514Z 01018G25KT 11/M02 A3019 RMK A01 T01071020  RH  041%=      5-min Rain = 0
KWT1 111515Z 01021G26KT 11/M02 A3019 RMK A01 T01071020  RH  041%=      5-min Rain = 0
KWT1 111516Z 01019KT 11/M02 A3019 RMK A01 T01071021  RH  041%=      5-min Rain = 0
KWT1 111517Z 01021KT 11/M02 A3019 RMK A01 T01081021  RH  040%=      5-min Rain = 0
KWT1 111518Z 00022KT 11/M02 A3019 RMK A01 T01081021  RH  040%=      5-min Rain = 0
KWT1 111519Z 01019G24KT 11/M02 A3019 RMK A01 T01081021  RH  040%=      5-min Rain = 0
KWT1 111520Z 02020G25KT 11/M02 A3019 RMK A01 T01081021  RH  041%=      5-min Rain = 0
KWT1 111521Z 02018KT 11/M02 A3019 RMK A01 T01081022  RH  040%=      5-min Rain = 0
KWT1 111522Z 02020KT 11/M02 A3019 RMK A01 T01091021  RH  040%=      5-min Rain = 0
KWT1 111523Z 02019G24KT 11/M02 A3019 RMK A01 T01091020  RH  040%=      5-min Rain = 0
KWT1 111524Z 02019KT 11/M02 A3019 RMK A01 T01091020  RH  041%=      5-min Rain = 0
KWT1 111525Z 01020G26KT 11/M02 A302 RMK A01 T01091020  RH  041%=      5-min Rain = 0
KWT1 111526Z 36023G28KT 11/M02 A302 RMK A01 T01091020  RH  040%=      5-min Rain = 0
KWT1 111527Z 01024G29KT 11/M02 A302 RMK A01 T01091021  RH  040%=      5-min Rain = 0
KWT1 111528Z 01019G24KT 11/M02 A302 RMK A01 T01101021  RH  040%=      5-min Rain = 0
KWT1 111529Z 02019KT 11/M02 A302 RMK A01 T01101021  RH  040%=      5-min Rain = 0
KWT1 111530Z 02018KT 11/M02 A302 RMK A01 T01101021  RH  040%=      5-min Rain = 0
KWT1 111531Z 02017G23KT 11/M02 A302 RMK A01 T01121020  RH  040%=      5-min Rain = 0
KWT1 111532Z 01019KT 11/M02 A302 RMK A01 T01131019  RH  040%=      5-min Rain = 0
KWT1 111533Z 01015KT 11/M02 A302 RMK A01 T01141020  RH  039%=      5-min Rain = 0
KWT1 111534Z 02018KT 12/M02 A302 RMK A01 T01161020  RH  039%=      5-min Rain = 0
KWT1 111535Z 00022G27KT 12/M02 A302 RMK A01 T01171022  RH  038%=      5-min Rain = 0
KWT1 111536Z 00017KT 12/M02 A302 RMK A01 T01151024  RH  038%=      5-min Rain = 0
KWT1 111537Z 00021KT 12/M02 A302 RMK A01 T01151023  RH  038%=      5-min Rain = 0
KWT1 111538Z 02018G23KT 12/M02 A302 RMK A01 T01151023  RH  038%=      5-min Rain = 0
KWT1 111539Z 02016G21KT 12/M02 A302 RMK A01 T01151022  RH  038%=      5-min Rain = 0
KWT1 111540Z 01019KT 12/M02 A302 RMK A01 T01171022  RH  038%=      5-min Rain = 0
KWT1 111541Z 01018G25KT 12/M02 A302 RMK A01 T01161023  RH  038%=      5-min Rain = 0
KWT1 111542Z 01014G20KT 12/M02 A302 RMK A01 T01161023  RH  038%=      5-min Rain = 0
KWT1 111543Z 36017G25KT 12/M02 A302 RMK A01 T01181022  RH  038%=      5-min Rain = 0
KWT1 111544Z 36018KT 12/M02 A302 RMK A01 T01191024  RH  037%=      5-min Rain = 0
KWT1 111545Z 01015G21KT 12/M03 A3021 RMK A01 T01171025  RH  037%=      5-min Rain = 0
KWT1 111546Z 00020G26KT 12/M02 A3021 RMK A01 T01181024  RH  037%=      5-min Rain = 0
KWT1 111547Z 01021G26KT 12/M03 A3021 RMK A01 T01161027  RH  037%=      5-min Rain = 0
KWT1 111548Z 36022KT 11/M03 A3021 RMK A01 T01141029  RH  037%=      5-min Rain = 0
KWT1 111549Z 00021KT 11/M03 A3021 RMK A01 T01141028  RH  037%=      5-min Rain = 0
KWT1 111550Z 01022KT 11/M03 A3021 RMK A01 T01131029  RH  037%=      5-min Rain = 0
KWT1 111551Z 01018KT 11/M03 A3021 RMK A01 T01131029  RH  037%=      5-min Rain = 0
KWT1 111552Z 01017G24KT 11/M03 A3022 RMK A01 T01131028  RH  037%=      5-min Rain = 0
KWT1 111553Z 01021KT 11/M03 A3022 RMK A01 T01141028  RH  037%=      5-min Rain = 0
KWT1 111554Z 01019G28KT 11/M03 A3022 RMK A01 T01141030  RH  037%=      5-min Rain = 0
KWT1 111555Z 00020KT 11/M03 A3022 RMK A01 T01131030  RH  037%=      5-min Rain = 0
KWT1 111556Z 01021KT 11/M03 A3022 RMK A01 T01141029  RH  037%=      5-min Rain = 0
KWT1 111557Z 02020G26KT 12/M03 A3022 RMK A01 T01151030  RH  036%=      5-min Rain = 0
KWT1 111558Z 02018G23KT 12/M03 A3022 RMK A01 T01151032  RH  036%=      5-min Rain = 0
KWT1 111559Z 02018KT 12/M03 A3022 RMK A01 T01171032  RH  035%=      5-min Rain = 0
KWT1 111600Z 02020G26KT 12/M03 A3022 RMK A01 T01181032  RH  035%=      5-min Rain = 0
KWT1 111601Z 02019G25KT 12/M03 A3022 RMK A01 T01181033  RH  035%=      5-min Rain = 0
KWT1 111602Z 02017G22KT 12/M03 A3023 RMK A01 T01191031  RH  035%=      5-min Rain = 0
KWT1 111603Z 02020KT 12/M03 A3023 RMK A01 T01201032  RH  035%=      5-min Rain = 0
KWT1 111604Z 00018KT 12/M03 A3023 RMK A01 T01191033  RH  034%=      5-min Rain = 0
KWT1 111605Z 01017KT 12/M03 A3023 RMK A01 T01211033  RH  034%=      5-min Rain = 0
KWT1 111606Z 01017G23KT 12/M03 A3023 RMK A01 T01221032  RH  034%=      5-min Rain = 0
KWT1 111607Z 00015KT 13/M03 A3022 RMK A01 T01251032  RH  033%=      5-min Rain = 0
KWT1 111608Z 01021G26KT 13/M03 A3023 RMK A01 T01271033  RH  033%=      5-min Rain = 0
KWT1 111609Z 00018G23KT 13/M04 A3023 RMK A01 T01251036  RH  032%=      5-min Rain = 0
KWT1 111610Z 01019KT 13/M03 A3023 RMK A01 T01261034  RH  033%=      5-min Rain = 0
KWT1 111611Z 02018KT 13/M04 A3023 RMK A01 T01251036  RH  032%=      5-min Rain = 0
KWT1 111612Z 02015KT 12/M04 A3023 RMK A01 T01241037  RH  033%=      5-min Rain = 0
KWT1 111613Z 03017G23KT 12/M04 A3023 RMK A01 T01231035  RH  033%=      5-min Rain = 0
KWT1 111614Z 02019KT 13/M04 A3023 RMK A01 T01251035  RH  033%=      5-min Rain = 0
KWT1 111615Z 02016G24KT 13/M04 A3023 RMK A01 T01251038  RH  032%=      5-min Rain = 0
KWT1 111616Z 02016G21KT 12/M04 A3023 RMK A01 T01241039  RH  032%=      5-min Rain = 0
KWT1 111617Z 02015KT 12/M04 A3023 RMK A01 T01241038  RH  032%=      5-min Rain = 0
KWT1 111618Z 02017KT 13/M04 A3023 RMK A01 T01251037  RH  032%=      5-min Rain = 0
KWT1 111619Z 01018G23KT 13/M04 A3023 RMK A01 T01251038  RH  032%=      5-min Rain = 0
KWT1 111620Z 01019KT 12/M04 A3023 RMK A01 T01231039  RH  032%=      5-min Rain = 0
KWT1 111621Z 01017KT 12/M04 A3023 RMK A01 T01211040  RH  032%=      5-min Rain = 0
KWT1 111622Z 01015G20KT 12/M04 A3023 RMK A01 T01231037  RH  032%=      5-min Rain = 0
KWT1 111623Z 02017G23KT 13/M04 A3023 RMK A01 T01261036  RH  032%=      5-min Rain = 0
KWT1 111624Z 02019KT 13/M04 A3023 RMK A01 T01261038  RH  032%=      5-min Rain = 0
KWT1 111625Z 02017KT 12/M04 A3023 RMK A01 T01231038  RH  032%=      5-min Rain = 0
KWT1 111626Z 01017G24KT 12/M04 A3023 RMK A01 T01231036  RH  033%=      5-min Rain = 0
KWT1 111627Z 00019KT 12/M04 A3023 RMK A01 T01241036  RH  033%=      5-min Rain = 0
KWT1 111628Z 00019KT 12/M04 A3023 RMK A01 T01231037  RH  033%=      5-min Rain = 0
KWT1 111629Z 01017KT 12/M04 A3023 RMK A01 T01221037  RH  033%=      5-min Rain = 0
KWT1 111630Z 01016KT 12/M04 A3024 RMK A01 T01241036  RH  032%=      5-min Rain = 0
KWT1 111631Z 02020KT 13/M04 A3023 RMK A01 T01251037  RH  032%=      5-min Rain = 0
KWT1 111632Z 01021KT 12/M04 A3024 RMK A01 T01231039  RH  032%=      5-min Rain = 0
KWT1 111633Z 01020KT 12/M04 A3024 RMK A01 T01221038  RH  033%=      5-min Rain = 0
KWT1 111634Z 01019KT 12/M04 A3024 RMK A01 T01211039  RH  032%=      5-min Rain = 0
KWT1 111635Z 01018KT 12/M04 A3023 RMK A01 T01201042  RH  032%=      5-min Rain = 0
KWT1 111636Z 36018G23KT 12/M04 A3023 RMK A01 T01191042  RH  032%=      5-min Rain = 0
KWT1 111637Z 01017G22KT 12/M04 A3023 RMK A01 T01201042  RH  032%=      5-min Rain = 0
KWT1 111638Z 01016KT 12/M04 A3024 RMK A01 T01211041  RH  032%=      5-min Rain = 0
KWT1 111639Z 02016KT 12/M04 A3024 RMK A01 T01221041  RH  032%=      5-min Rain = 0
KWT1 111640Z 02016KT 12/M04 A3024 RMK A01 T01221040  RH  032%=      5-min Rain = 0
KWT1 111641Z 02017KT 12/M04 A3024 RMK A01 T01221039  RH  032%=      5-min Rain = 0
KWT1 111642Z 02019KT 12/M04 A3024 RMK A01 T01221039  RH  032%=      5-min Rain = 0
KWT1 111643Z 03019KT 12/M04 A3024 RMK A01 T01211039  RH  033%=      5-min Rain = 0
KWT1 111644Z 02017KT 12/M04 A3024 RMK A01 T01201039  RH  033%=      5-min Rain = 0
KWT1 111645Z 01016KT 12/M04 A3024 RMK A01 T01191038  RH  033%=      5-min Rain = 0
KWT1 111646Z 01015KT 12/M04 A3024 RMK A01 T01191038  RH  033%=      5-min Rain = 0
KWT1 111647Z 01018KT 12/M04 A3024 RMK A01 T01191038  RH  033%=      5-min Rain = 0
KWT1 111648Z 01015KT 12/M04 A3024 RMK A01 T01191038  RH  033%=      5-min Rain = 0
KWT1 111649Z 01018KT 12/M04 A3025 RMK A01 T01201038  RH  033%=      5-min Rain = 0
KWT1 111650Z 02016G23KT 12/M04 A3024 RMK A01 T01191040  RH  033%=      5-min Rain = 0
KWT1 111651Z 00013KT 12/M04 A3024 RMK A01 T01201038  RH  033%=      5-min Rain = 0
KWT1 111652Z 01019KT 12/M04 A3025 RMK A01 T01221038  RH  033%=      5-min Rain = 0
KWT1 111653Z 01018KT 12/M04 A3025 RMK A01 T01181039  RH  033%=      5-min Rain = 0
KWT1 111654Z 02017KT 12/M04 A3025 RMK A01 T01171037  RH  034%=      5-min Rain = 0
KWT1 111655Z 01014G19KT 12/M04 A3025 RMK A01 T01171036  RH  034%=      5-min Rain = 0
KWT1 111656Z 00017KT 12/M04 A3025 RMK A01 T01201036  RH  033%=      5-min Rain = 0
KWT1 111657Z 01017G22KT 12/M04 A3025 RMK A01 T01211040  RH  032%=      5-min Rain = 0
KWT1 111658Z 01017G24KT 12/M04 A3025 RMK A01 T01211044  RH  031%=      5-min Rain = 0
KWT1 111659Z 01023KT 12/M05 A3025 RMK A01 T01221051  RH  030%=      5-min Rain = 0
KWT1 111700Z 01021G27KT 12/M06 A3025 RMK A01 T01191059  RH  028%=      5-min Rain = 0
KWT1 111701Z 02021KT 12/M06 A3025 RMK A01 T01191059  RH  028%=      5-min Rain = 0
KWT1 111702Z 02020KT 12/M06 A3025 RMK A01 T01181058  RH  029%=      5-min Rain = 0
KWT1 111703Z 02019KT 12/M06 A3025 RMK A01 T01171058  RH  029%=      5-min Rain = 0
KWT1 111704Z 03019G25KT 12/M06 A3025 RMK A01 T01171058  RH  029%=      5-min Rain = 0
KWT1 111705Z 03021KT 12/M06 A3025 RMK A01 T01171058  RH  029%=      5-min Rain = 0
KWT1 111706Z 03017G23KT 12/M06 A3025 RMK A01 T01151057  RH  029%=      5-min Rain = 0
KWT1 111707Z 03021KT 12/M06 A3025 RMK A01 T01161057  RH  029%=      5-min Rain = 0
KWT1 111708Z 02018G23KT 12/M06 A3025 RMK A01 T01151055  RH  030%=      5-min Rain = 0
KWT1 111709Z 02018G23KT 12/M05 A3026 RMK A01 T01151053  RH  030%=      5-min Rain = 0
KWT1 111710Z 02021KT 12/M05 A3025 RMK A01 T01161052  RH  031%=      5-min Rain = 0
KWT1 111711Z 02016KT 12/M05 A3025 RMK A01 T01151052  RH  031%=      5-min Rain = 0
KWT1 111712Z 02017KT 12/M05 A3026 RMK A01 T01161051  RH  031%=      5-min Rain = 0
KWT1 111713Z 02016G21KT 12/M05 A3026 RMK A01 T01171053  RH  030%=      5-min Rain = 0
KWT1 111714Z 02013KT 12/M05 A3026 RMK A01 T01181053  RH  030%=      5-min Rain = 0
KWT1 111715Z 03016KT 12/M05 A3026 RMK A01 T01201052  RH  030%=      5-min Rain = 0
KWT1 111716Z 02014KT 12/M05 A3026 RMK A01 T01201053  RH  030%=      5-min Rain = 0
KWT1 111717Z 02015G22KT 12/M05 A3026 RMK A01 T01211052  RH  030%=      5-min Rain = 0
KWT1 111718Z 01017KT 12/M05 A3026 RMK A01 T01201050  RH  030%=      5-min Rain = 0
KWT1 111719Z 01021KT 12/M05 A3026 RMK A01 T01171050  RH  031%=      5-min Rain = 0
KWT1 111720Z 00018KT 11/M05 A3026 RMK A01 T01141051  RH  031%=      5-min Rain = 0
KWT1 111721Z 36022KT 11/M05 A3026 RMK A01 T01131052  RH  031%=      5-min Rain = 0
KWT1 111722Z 36019KT 11/M06 A3026 RMK A01 T01111055  RH  031%=      5-min Rain = 0
KWT1 111723Z 01018KT 11/M06 A3027 RMK A01 T01111056  RH  031%=      5-min Rain = 0
KWT1 111724Z 01015G22KT 11/M05 A3027 RMK A01 T01141053  RH  031%=      5-min Rain = 0
KWT1 111725Z 01017KT 12/M06 A3027 RMK A01 T01161055  RH  030%=      5-min Rain = 0
KWT1 111726Z 01016KT 12/M06 A3027 RMK A01 T01161056  RH  029%=      5-min Rain = 0
KWT1 111727Z 02017G24KT 12/M06 A3027 RMK A01 T01171057  RH  029%=      5-min Rain = 0
KWT1 111728Z 00021KT 12/M06 A3027 RMK A01 T01171060  RH  029%=      5-min Rain = 0
KWT1 111729Z 00017KT 12/M06 A3027 RMK A01 T01171062  RH  028%=      5-min Rain = 0
KWT1 111730Z 01018KT 12/M06 A3027 RMK A01 T01181063  RH  028%=      5-min Rain = 0
KWT1 111731Z 01021KT 12/M07 A3026 RMK A01 T01181067  RH  027%=      5-min Rain = 0
KWT1 111732Z 02019G25KT 12/M07 A3026 RMK A01 T01181070  RH  026%=      5-min Rain = 0
KWT1 111733Z 02023KT 12/M07 A3027 RMK A01 T01181074  RH  025%=      5-min Rain = 0
KWT1 111734Z 02021G26KT 12/M08 A3027 RMK A01 T01171078  RH  025%=      5-min Rain = 0
KWT1 111735Z 02021G26KT 12/M08 A3027 RMK A01 T01171078  RH  025%=      5-min Rain = 0
KWT1 111736Z 01021KT 12/M08 A3027 RMK A01 T01171076  RH  025%=      5-min Rain = 0
KWT1 111737Z 01021KT 12/M08 A3026 RMK A01 T01151076  RH  025%=      5-min Rain = 0
KWT1 111738Z 01021G26KT 11/M08 A3026 RMK A01 T01141075  RH  026%=      5-min Rain = 0
KWT1 111739Z 01017KT 11/M07 A3026 RMK A01 T01141074  RH  026%=      5-min Rain = 0
KWT1 111740Z 02019G25KT 12/M07 A3026 RMK A01 T01151072  RH  026%=      5-min Rain = 0
KWT1 111741Z 02018KT 12/M07 A3026 RMK A01 T01151073  RH  026%=      5-min Rain = 0
KWT1 111742Z 02016G21KT 11/M07 A3026 RMK A01 T01141073  RH  026%=      5-min Rain = 0
KWT1 111743Z 02018KT 11/M07 A3026 RMK A01 T01141072  RH  026%=      5-min Rain = 0
KWT1 111744Z 02015KT 11/M07 A3026 RMK A01 T01141071  RH  027%=      5-min Rain = 0
KWT1 111745Z 02017KT 11/M07 A3026 RMK A01 T01141069  RH  027%=      5-min Rain = 0
KWT1 111746Z 03015KT 11/M07 A3026 RMK A01 T01131069  RH  027%=      5-min Rain = 0
KWT1 111747Z 02016KT 11/M07 A3026 RMK A01 T01141066  RH  028%=      5-min Rain = 0
KWT1 111748Z 03015KT 12/M07 A3026 RMK A01 T01151065  RH  028%=      5-min Rain = 0
KWT1 111749Z 02016KT 12/M06 A3026 RMK A01 T01151063  RH  028%=      5-min Rain = 0
KWT1 111750Z 02016KT 11/M06 A3026 RMK A01 T01141063  RH  028%=      5-min Rain = 0
KWT1 111751Z 03015KT 11/M06 A3026 RMK A01 T01131063  RH  028%=      5-min Rain = 0
KWT1 111752Z 03015KT 11/M06 A3026 RMK A01 T01131063  RH  029%=      5-min Rain = 0
KWT1 111753Z 03016KT 11/M06 A3026 RMK A01 T01121062  RH  029%=      5-min Rain = 0
KWT1 111754Z 02015KT 11/M06 A3026 RMK A01 T01121062  RH  029%=      5-min Rain = 0
KWT1 111755Z 02012KT 11/M06 A3026 RMK A01 T01141060  RH  029%=      5-min Rain = 0
KWT1 111756Z 03012KT 12/M06 A3026 RMK A01 T01161058  RH  029%=      5-min Rain = 0
KWT1 111757Z 02012KT 12/M06 A3026 RMK A01 T01191056  RH  029%=      5-min Rain = 0
KWT1 111758Z 02014G19KT 12/M06 A3026 RMK A01 T01191056  RH  029%=      5-min Rain = 0
KWT1 111759Z 01015KT 12/M06 A3026 RMK A01 T01171056  RH  029%=      5-min Rain = 0
KWT1 111800Z 02012KT 12/M06 A3026 RMK A01 T01151055  RH  030%=      5-min Rain = 0
KWT1 111801Z 03013G18KT 12/M05 A3026 RMK A01 T01171054  RH  030%=      5-min Rain = 0
KWT1 111802Z 03016KT 12/M06 A3026 RMK A01 T01171056  RH  029%=      5-min Rain = 0
KWT1 111803Z 02015KT 12/M06 A3026 RMK A01 T01151058  RH  029%=      5-min Rain = 0
KWT1 111804Z 01015KT 12/M06 A3026 RMK A01 T01151056  RH  030%=      5-min Rain = 0
KWT1 111805Z 01013G18KT 12/M05 A3026 RMK A01 T01151054  RH  030%=      5-min Rain = 0
KWT1 111806Z 02011KT 12/M05 A3026 RMK A01 T01181052  RH  030%=      5-min Rain = 0
KWT1 111807Z 02014G19KT 12/M05 A3026 RMK A01 T01191051  RH  030%=      5-min Rain = 0
KWT1 111808Z 01017KT 12/M05 A3026 RMK A01 T01221050  RH  030%=      5-min Rain = 0
KWT1 111809Z 01018KT 12/M05 A3026 RMK A01 T01211053  RH  029%=      5-min Rain = 0
KWT1 111810Z 01014KT 12/M06 A3026 RMK A01 T01191055  RH  029%=      5-min Rain = 0
KWT1 111811Z 01018KT 12/M06 A3026 RMK A01 T01171056  RH  029%=      5-min Rain = 0
KWT1 111812Z 00015KT 12/M06 A3026 RMK A01 T01161057  RH  029%=      5-min Rain = 0
KWT1 111813Z 00016KT 12/M06 A3026 RMK A01 T01161057  RH  029%=      5-min Rain = 0
KWT1 111814Z 01016G21KT 12/M06 A3026 RMK A01 T01171056  RH  029%=      5-min Rain = 0
KWT1 111815Z 01015G20KT 12/M06 A3026 RMK A01 T01171057  RH  029%=      5-min Rain = 0
KWT1 111816Z 36016KT 12/M06 A3026 RMK A01 T01171058  RH  029%=      5-min Rain = 0
KWT1 111817Z 00017G22KT 12/M06 A3026 RMK A01 T01171057  RH  029%=      5-min Rain = 0
KWT1 111818Z 00019KT 12/M06 A3027 RMK A01 T01181057  RH  029%=      5-min Rain = 0
KWT1 111819Z 01020KT 12/M06 A3027 RMK A01 T01181057  RH  029%=      5-min Rain = 0
KWT1 111820Z 01019KT 12/M06 A3027 RMK A01 T01181058  RH  029%=      5-min Rain = 0
KWT1 111821Z 00020G25KT 12/M06 A3027 RMK A01 T01191060  RH  028%=      5-min Rain = 0
KWT1 111822Z 00021KT 12/M06 A3026 RMK A01 T01181063  RH  028%=      5-min Rain = 0
KWT1 111823Z 01019KT 12/M07 A3026 RMK A01 T01171065  RH  027%=      5-min Rain = 0
KWT1 111824Z 00020G25KT 12/M07 A3026 RMK A01 T01171066  RH  027%=      5-min Rain = 0
KWT1 111825Z 00020KT 12/M07 A3026 RMK A01 T01161067  RH  027%=      5-min Rain = 0
KWT1 111826Z 01019KT 12/M07 A3026 RMK A01 T01161069  RH  027%=      5-min Rain = 0
KWT1 111827Z 00017KT 12/M07 A3026 RMK A01 T01171071  RH  026%=      5-min Rain = 0
KWT1 111828Z 01013G21KT 12/M07 A3026 RMK A01 T01191069  RH  026%=      5-min Rain = 0
KWT1 111829Z 01019G27KT 12/M07 A3026 RMK A01 T01221070  RH  025%=      5-min Rain = 0
KWT1 111830Z 03020KT 12/M07 A3026 RMK A01 T01211074  RH  025%=      5-min Rain = 0
KWT1 111831Z 03019KT 12/M07 A3026 RMK A01 T01191071  RH  026%=      5-min Rain = 0
KWT1 111832Z 02018KT 12/M07 A3026 RMK A01 T01181069  RH  026%=      5-min Rain = 0
KWT1 111833Z 02016KT 12/M07 A3026 RMK A01 T01181073  RH  026%=      5-min Rain = 0
KWT1 111834Z 03015G21KT 12/M07 A3026 RMK A01 T01181074  RH  025%=      5-min Rain = 0
KWT1 111835Z 01016KT 12/M08 A3026 RMK A01 T01201076  RH  025%=      5-min Rain = 0
KWT1 111836Z 02014G20KT 12/M08 A3026 RMK A01 T01211080  RH  024%=      5-min Rain = 0
KWT1 111837Z 02015KT 12/M08 A3027 RMK A01 T01211083  RH  023%=      5-min Rain = 0
KWT1 111838Z 01012KT 12/M08 A3026 RMK A01 T01211083  RH  023%=      5-min Rain = 0
KWT1 111839Z 01015KT 12/M08 A3026 RMK A01 T01221082  RH  023%=      5-min Rain = 0
KWT1 111840Z 01018G23KT 12/M09 A3026 RMK A01 T01231087  RH  022%=      5-min Rain = 0
KWT1 111841Z 01018G23KT 12/M09 A3026 RMK A01 T01211091  RH  022%=      5-min Rain = 0
KWT1 111842Z 01016G21KT 12/M09 A3026 RMK A01 T01201092  RH  022%=      5-min Rain = 0
KWT1 111843Z 01016KT 12/M09 A3026 RMK A01 T01201092  RH  022%=      5-min Rain = 0
KWT1 111844Z 02017KT 12/M09 A3026 RMK A01 T01201092  RH  022%=      5-min Rain = 0
KWT1 111845Z 02019KT 12/M09 A3026 RMK A01 T01211094  RH  021%=      5-min Rain = 0
KWT1 111846Z 03016G21KT 12/M10 A3026 RMK A01 T01201096  RH  021%=      5-min Rain = 0
KWT1 111847Z 02016KT 12/M09 A3026 RMK A01 T01201092  RH  022%=      5-min Rain = 0
KWT1 111848Z 02017KT 12/M09 A3026 RMK A01 T01211094  RH  021%=      5-min Rain = 0
KWT1 111849Z 03017KT 12/M09 A3026 RMK A01 T01201093  RH  022%=      5-min Rain = 0
KWT1 111850Z 04013KT 12/M09 A3026 RMK A01 T01191092  RH  022%=      5-min Rain = 0
KWT1 111851Z 02016KT 12/M09 A3026 RMK A01 T01211088  RH  022%=      5-min Rain = 0
KWT1 111852Z 02015KT 12/M09 A3027 RMK A01 T01221086  RH  023%=      5-min Rain = 0
KWT1 111853Z 02015KT 12/M08 A3027 RMK A01 T01231084  RH  023%=      5-min Rain = 0
KWT1 111854Z 02013KT 12/M08 A3027 RMK A01 T01231082  RH  023%=      5-min Rain = 0
KWT1 111855Z 02012KT 12/M08 A3026 RMK A01 T01231083  RH  023%=      5-min Rain = 0
KWT1 111856Z 01015KT 13/M08 A3027 RMK A01 T01251079  RH  023%=      5-min Rain = 0
KWT1 111857Z 01016KT 13/M08 A3026 RMK A01 T01261077  RH  023%=      5-min Rain = 0
KWT1 111858Z 01013KT 13/M08 A3026 RMK A01 T01261078  RH  023%=      5-min Rain = 0
KWT1 111859Z 01014KT 13/M08 A3026 RMK A01 T01271078  RH  023%=      5-min Rain = 0
KWT1 111900Z 02015KT 13/M08 A3026 RMK A01 T01281078  RH  023%=      5-min Rain = 0
KWT1 111901Z 02017KT 13/M07 A3026 RMK A01 T01301074  RH  023%=      5-min Rain = 0
KWT1 111902Z 02015KT 13/M08 A3026 RMK A01 T01271075  RH  024%=      5-min Rain = 0
KWT1 111903Z 02013KT 13/M07 A3026 RMK A01 T01281074  RH  024%=      5-min Rain = 0
KWT1 111904Z 00014KT 13/M08 A3026 RMK A01 T01281078  RH  023%=      5-min Rain = 0
KWT1 111905Z 00014G20KT 13/M08 A3026 RMK A01 T01281080  RH  023%=      5-min Rain = 0
KWT1 111906Z 02017KT 13/M08 A3026 RMK A01 T01301078  RH  023%=      5-min Rain = 0
KWT1 111907Z 02017G22KT 13/M08 A3026 RMK A01 T01311078  RH  023%=      5-min Rain = 0
KWT1 111908Z 01018KT 13/M08 A3026 RMK A01 T01321082  RH  022%=      5-min Rain = 0
KWT1 111909Z 01014KT 13/M09 A3026 RMK A01 T01301088  RH  021%=      5-min Rain = 0
KWT1 111910Z 00015KT 13/M09 A3025 RMK A01 T01311088  RH  021%=      5-min Rain = 0
KWT1 111911Z 01018G26KT 13/M09 A3026 RMK A01 T01301091  RH  021%=      5-min Rain = 0
KWT1 111912Z 01019KT 13/M09 A3026 RMK A01 T01291092  RH  020%=      5-min Rain = 0
KWT1 111913Z 02017G22KT 13/M09 A3026 RMK A01 T01291093  RH  020%=      5-min Rain = 0
KWT1 111914Z 01016KT 13/M09 A3026 RMK A01 T01281093  RH  020%=      5-min Rain = 0
KWT1 111915Z 02017KT 13/M09 A3026 RMK A01 T01281094  RH  020%=      5-min Rain = 0
KWT1 111916Z 01015KT 13/M09 A3026 RMK A01 T01291094  RH  020%=      5-min Rain = 0
KWT1 111917Z 01017KT 13/M10 A3026 RMK A01 T01301096  RH  020%=      5-min Rain = 0
KWT1 111918Z 03017KT 13/M10 A3026 RMK A01 T01281096  RH  020%=      5-min Rain = 0
KWT1 111919Z 03019KT 13/M10 A3026 RMK A01 T01281095  RH  020%=      5-min Rain = 0
KWT1 111920Z 03016KT 13/M10 A3026 RMK A01 T01271095  RH  020%=      5-min Rain = 0
KWT1 111921Z 03015KT 13/M10 A3026 RMK A01 T01281096  RH  020%=      5-min Rain = 0
KWT1 111922Z 02013KT 13/M10 A3026 RMK A01 T01291099  RH  019%=      5-min Rain = 0
KWT1 111923Z 04015KT 13/M10 A3026 RMK A01 T01301096  RH  020%=      5-min Rain = 0
KWT1 111924Z 03015G22KT 13/M09 A3026 RMK A01 T01301093  RH  020%=      5-min Rain = 0
KWT1 111925Z 02016G21KT 13/M09 A3026 RMK A01 T01291091  RH  021%=      5-min Rain = 0
KWT1 111926Z 02016KT 13/M09 A3025 RMK A01 T01301087  RH  021%=      5-min Rain = 0
KWT1 111927Z 01016KT 13/M09 A3025 RMK A01 T01331085  RH  021%=      5-min Rain = 0
KWT1 111928Z 01013KT 14/M09 A3025 RMK A01 T01351085  RH  021%=      5-min Rain = 0
KWT1 111929Z 00015KT 13/M08 A3025 RMK A01 T01341084  RH  021%=      5-min Rain = 0
KWT1 111930Z 00017KT 13/M09 A3025 RMK A01 T01331086  RH  021%=      5-min Rain = 0
KWT1 111931Z 36016KT 13/M09 A3025 RMK A01 T01301086  RH  021%=      5-min Rain = 0
KWT1 111932Z 00015KT 13/M09 A3025 RMK A01 T01281086  RH  022%=      5-min Rain = 0
KWT1 111933Z 02012G17KT 13/M09 A3025 RMK A01 T01271085  RH  022%=      5-min Rain = 0
KWT1 111934Z 03016KT 13/M09 A3025 RMK A01 T01291085  RH  022%=      5-min Rain = 0
KWT1 111935Z 02015KT 13/M09 A3025 RMK A01 T01301085  RH  022%=      5-min Rain = 0
KWT1 111936Z 02015KT 13/M09 A3025 RMK A01 T01331086  RH  021%=      5-min Rain = 0
KWT1 111937Z 01013KT 13/M09 A3025 RMK A01 T01321087  RH  021%=      5-min Rain = 0
KWT1 111938Z 00016KT 13/M09 A3025 RMK A01 T01311086  RH  021%=      5-min Rain = 0
KWT1 111939Z 36013KT 13/M09 A3025 RMK A01 T01291090  RH  021%=      5-min Rain = 0
KWT1 111940Z 01016G22KT 13/M09 A3025 RMK A01 T01291092  RH  021%=      5-min Rain = 0
KWT1 111941Z 03014KT 13/M09 A3025 RMK A01 T01321090  RH  021%=      5-min Rain = 0
KWT1 111942Z 01013KT 13/M09 A3025 RMK A01 T01311088  RH  021%=      5-min Rain = 0
KWT1 111943Z 01014KT 13/M09 A3025 RMK A01 T01331090  RH  020%=      5-min Rain = 0
KWT1 111944Z 02017KT 13/M09 A3025 RMK A01 T01341092  RH  020%=      5-min Rain = 0
KWT1 111945Z 01016KT 13/M09 A3025 RMK A01 T01341094  RH  019%=      5-min Rain = 0
KWT1 111946Z 01017G23KT 13/M10 A3025 RMK A01 T01341095  RH  019%=      5-min Rain = 0
KWT1 111947Z 01016G21KT 13/M10 A3025 RMK A01 T01321096  RH  019%=      5-min Rain = 0
KWT1 111948Z 01018KT 13/M10 A3025 RMK A01 T01311095  RH  020%=      5-min Rain = 0
KWT1 111949Z 01017KT 13/M09 A3025 RMK A01 T01301093  RH  020%=      5-min Rain = 0
KWT1 111950Z 02017KT 13/M09 A3025 RMK A01 T01291092  RH  021%=      5-min Rain = 0
KWT1 111951Z 01016KT 13/M09 A3025 RMK A01 T01291091  RH  021%=      5-min Rain = 0
KWT1 111952Z 02018KT 13/M09 A3025 RMK A01 T01291090  RH  021%=      5-min Rain = 0
KWT1 111953Z 03017G22KT 13/M09 A3025 RMK A01 T01291089  RH  021%=      5-min Rain = 0
KWT1 111954Z 01016KT 13/M09 A3025 RMK A01 T01301088  RH  021%=      5-min Rain = 0
KWT1 111955Z 01017KT 13/M09 A3025 RMK A01 T01311087  RH  021%=      5-min Rain = 0
KWT1 111956Z 36018KT 13/M09 A3025 RMK A01 T01301087  RH  021%=      5-min Rain = 0
KWT1 111957Z 00017KT 13/M09 A3025 RMK A01 T01281089  RH  021%=      5-min Rain = 0
KWT1 111958Z 00015KT 13/M09 A3025 RMK A01 T01281089  RH  021%=      5-min Rain = 0
KWT1 111959Z 02014KT 13/M09 A3025 RMK A01 T01281087  RH  021%=      5-min Rain = 0
KWT1 112000Z 03017G23KT 13/M09 A3025 RMK A01 T01291085  RH  022%=      5-min Rain = 0
KWT1 112001Z 02017G23KT 13/M09 A3025 RMK A01 T01291086  RH  022%=      5-min Rain = 0
KWT1 112002Z 02014KT 13/M08 A3025 RMK A01 T01281084  RH  022%=      5-min Rain = 0
KWT1 112003Z 02016KT 13/M08 A3025 RMK A01 T01301083  RH  022%=      5-min Rain = 0
KWT1 112004Z 01018KT 13/M08 A3025 RMK A01 T01301083  RH  022%=      5-min Rain = 0
KWT1 112005Z 02016KT 13/M08 A3025 RMK A01 T01301082  RH  022%=      5-min Rain = 0
KWT1 112006Z 02012KT 13/M08 A3025 RMK A01 T01311081  RH  022%=      5-min Rain = 0
KWT1 112007Z 02016KT 13/M08 A3025 RMK A01 T01341080  RH  022%=      5-min Rain = 0
KWT1 112008Z 02012KT 13/M08 A3025 RMK A01 T01331081  RH  022%=      5-min Rain = 0
KWT1 112009Z 03015KT 13/M08 A3025 RMK A01 T01331079  RH  022%=      5-min Rain = 0
KWT1 112010Z 03020KT 13/M08 A3025 RMK A01 T01341083  RH  021%=      5-min Rain = 0
KWT1 112011Z 02017KT 13/M09 A3025 RMK A01 T01321088  RH  021%=      5-min Rain = 0
KWT1 112012Z 02015KT 13/M09 A3025 RMK A01 T01331087  RH  021%=      5-min Rain = 0
KWT1 112013Z 01014KT 13/M09 A3025 RMK A01 T01341088  RH  021%=      5-min Rain = 0
KWT1 112014Z 00014KT 13/M09 A3025 RMK A01 T01341087  RH  021%=      5-min Rain = 0
KWT1 112015Z 02015KT 14/M09 A3025 RMK A01 T01361086  RH  021%=      5-min Rain = 0
KWT1 112016Z 00012KT 14/M09 A3025 RMK A01 T01371088  RH  020%=      5-min Rain = 0
KWT1 112017Z 36016KT 14/M09 A3025 RMK A01 T01371090  RH  020%=      5-min Rain = 0
KWT1 112018Z 35018KT 14/M09 A3025 RMK A01 T01361091  RH  020%=      5-min Rain = 0
KWT1 112019Z 01017KT 14/M09 A3025 RMK A01 T01351092  RH  020%=      5-min Rain = 0
KWT1 112020Z 03015KT 14/M09 A3025 RMK A01 T01351090  RH  020%=      5-min Rain = 0
KWT1 112021Z 02016KT 14/M09 A3025 RMK A01 T01371088  RH  020%=      5-min Rain = 0
KWT1 112022Z 02015G20KT 14/M09 A3025 RMK A01 T01371088  RH  020%=      5-min Rain = 0
KWT1 112023Z 01014KT 14/M09 A3025 RMK A01 T01361087  RH  020%=      5-min Rain = 0
KWT1 112024Z 00014KT 14/M09 A3025 RMK A01 T01361087  RH  020%=      5-min Rain = 0
KWT1 112025Z 36015KT 14/M09 A3025 RMK A01 T01371086  RH  021%=      5-min Rain = 0
KWT1 112026Z 00014G20KT 14/M09 A3025 RMK A01 T01371085  RH  021%=      5-min Rain = 0
KWT1 112027Z 02016KT 14/M08 A3025 RMK A01 T01391083  RH  021%=      5-min Rain = 0
KWT1 112028Z 01013KT 14/M08 A3025 RMK A01 T01401083  RH  021%=      5-min Rain = 0
KWT1 112029Z 01015KT 14/M08 A3025 RMK A01 T01401082  RH  021%=      5-min Rain = 0
KWT1 112030Z 01013KT 14/M08 A3024 RMK A01 T01391082  RH  021%=      5-min Rain = 0
KWT1 112031Z 02014KT 14/M08 A3024 RMK A01 T01431081  RH  020%=      5-min Rain = 0
KWT1 112032Z 02015KT 15/M08 A3024 RMK A01 T01451082  RH  020%=      5-min Rain = 0
KWT1 112033Z 03013G19KT 14/M08 A3024 RMK A01 T01421084  RH  020%=      5-min Rain = 0
KWT1 112034Z 04015KT 14/M08 A3024 RMK A01 T01411083  RH  020%=      5-min Rain = 0
KWT1 112035Z 02014KT 14/M09 A3024 RMK A01 T01411085  RH  020%=      5-min Rain = 0
KWT1 112036Z 01014KT 14/M08 A3024 RMK A01 T01431084  RH  020%=      5-min Rain = 0
KWT1 112037Z 01016KT 14/M09 A3024 RMK A01 T01441086  RH  019%=      5-min Rain = 0
KWT1 112038Z 02016G21KT 14/M09 A3024 RMK A01 T01431087  RH  020%=      5-min Rain = 0
KWT1 112039Z 02016KT 14/M09 A3024 RMK A01 T01421086  RH  020%=      5-min Rain = 0
KWT1 112040Z 01015KT 14/M09 A3024 RMK A01 T01421085  RH  020%=      5-min Rain = 0
KWT1 112041Z 01012KT 14/M09 A3024 RMK A01 T01411085  RH  020%=      5-min Rain = 0
KWT1 112042Z 01017G24KT 14/M08 A3024 RMK A01 T01421082  RH  020%=      5-min Rain = 0
KWT1 112043Z 00018KT 14/M08 A3024 RMK A01 T01411084  RH  020%=      5-min Rain = 0
KWT1 112044Z 01016KT 14/M08 A3024 RMK A01 T01401084  RH  020%=      5-min Rain = 0
KWT1 112045Z 00015KT 14/M08 A3024 RMK A01 T01381084  RH  021%=      5-min Rain = 0
KWT1 112046Z 35013KT 14/M08 A3024 RMK A01 T01381083  RH  021%=      5-min Rain = 0
KWT1 112047Z 35015KT 14/M08 A3024 RMK A01 T01381083  RH  021%=      5-min Rain = 0
KWT1 112048Z 35017KT 14/M08 A3024 RMK A01 T01391081  RH  021%=      5-min Rain = 0
KWT1 112049Z 36019KT 14/M08 A3024 RMK A01 T01401081  RH  021%=      5-min Rain = 0
KWT1 112050Z 36015KT 14/M08 A3024 RMK A01 T01391082  RH  021%=      5-min Rain = 0
KWT1 112051Z 35017KT 14/M08 A3024 RMK A01 T01381081  RH  021%=      5-min Rain = 0
KWT1 112052Z 35017KT 14/M08 A3024 RMK A01 T01391081  RH  021%=      5-min Rain = 0
KWT1 112053Z 01015KT 14/M08 A3024 RMK A01 T01391082  RH  021%=      5-min Rain = 0
KWT1 112054Z 01016KT 14/M08 A3024 RMK A01 T01391080  RH  021%=      5-min Rain = 0
KWT1 112055Z 01016KT 14/M08 A3024 RMK A01 T01411079  RH  021%=      5-min Rain = 0
KWT1 112056Z 36017KT 14/M08 A3024 RMK A01 T01401081  RH  021%=      5-min Rain = 0
KWT1 112057Z 00016KT 14/M08 A3024 RMK A01 T01391081  RH  021%=      5-min Rain = 0
KWT1 112058Z 00013KT 14/M08 A3024 RMK A01 T01411079  RH  021%=      5-min Rain = 0
KWT1 112059Z 36016KT 14/M08 A3024 RMK A01 T01441078  RH  021%=      5-min Rain = 0
KWT1 112100Z 35017KT 15/M08 A3024 RMK A01 T01451080  RH  020%=      5-min Rain = 0
KWT1 112101Z 35016G23KT 14/M08 A3024 RMK A01 T01441080  RH  020%=      5-min Rain = 0
KWT1 112102Z 00020KT 14/M08 A3024 RMK A01 T01441080  RH  021%=      5-min Rain = 0
KWT1 112103Z 36020KT 14/M08 A3024 RMK A01 T01431081  RH  020%=      5-min Rain = 0
KWT1 112104Z 36018KT 14/M08 A3024 RMK A01 T01411083  RH  021%=      5-min Rain = 0
KWT1 112105Z 00018KT 14/M08 A3023 RMK A01 T01411081  RH  021%=      5-min Rain = 0
KWT1 112106Z 01018KT 14/M08 A3023 RMK A01 T01421081  RH  021%=      5-min Rain = 0
KWT1 112107Z 01017KT 14/M08 A3023 RMK A01 T01411082  RH  021%=      5-min Rain = 0
KWT1 112108Z 01016G21KT 14/M08 A3023 RMK A01 T01421080  RH  021%=      5-min Rain = 0
KWT1 112109Z 01016KT 15/M08 A3023 RMK A01 T01451079  RH  021%=      5-min Rain = 0
KWT1 112110Z 01014G21KT 15/M08 A3023 RMK A01 T01451078  RH  020%=      5-min Rain = 0
KWT1 112111Z 01017KT 15/M08 A3023 RMK A01 T01471079  RH  020%=      5-min Rain = 0
KWT1 112112Z 01014G19KT 15/M08 A3023 RMK A01 T01451081  RH  020%=      5-min Rain = 0
KWT1 112113Z 01015KT 14/M08 A3023 RMK A01 T01441080  RH  020%=      5-min Rain = 0
KWT1 112114Z 01015G20KT 14/M08 A3023 RMK A01 T01431080  RH  021%=      5-min Rain = 0
KWT1 112115Z 01013KT 14/M08 A3023 RMK A01 T01441079  RH  021%=      5-min Rain = 0
KWT1 112116Z 02014KT 15/M08 A3023 RMK A01 T01461079  RH  020%=      5-min Rain = 0
KWT1 112117Z 02015KT 15/M08 A3023 RMK A01 T01451080  RH  020%=      5-min Rain = 0
KWT1 112118Z 01011KT 14/M08 A3023 RMK A01 T01441079  RH  021%=      5-min Rain = 0
KWT1 112119Z 01013KT 15/M08 A3023 RMK A01 T01451079  RH  021%=      5-min Rain = 0
KWT1 112120Z 36011KT 14/M08 A3023 RMK A01 T01431080  RH  021%=      5-min Rain = 0
KWT1 112121Z 00013KT 15/M08 A3023 RMK A01 T01451078  RH  021%=      5-min Rain = 0
KWT1 112122Z 00014KT 14/M08 A3023 RMK A01 T01441080  RH  020%=      5-min Rain = 0
KWT1 112123Z 36014KT 14/M08 A3023 RMK A01 T01421080  RH  021%=      5-min Rain = 0
KWT1 112124Z 01013KT 14/M08 A3023 RMK A01 T01441079  RH  021%=      5-min Rain = 0
KWT1 112125Z 00011KT 14/M08 A3023 RMK A01 T01441079  RH  021%=      5-min Rain = 0
KWT1 112126Z 35010KT 14/M08 A3023 RMK A01 T01441078  RH  021%=      5-min Rain = 0
KWT1 112127Z 35012KT 15/M08 A3023 RMK A01 T01481075  RH  021%=      5-min Rain = 0
KWT1 112128Z 35012KT 15/M08 A3023 RMK A01 T01481078  RH  020%=      5-min Rain = 0
KWT1 112129Z 35010KT 15/M08 A3023 RMK A01 T01461079  RH  020%=      5-min Rain = 0
KWT1 112130Z 35013KT 15/M08 A3023 RMK A01 T01461078  RH  020%=      5-min Rain = 0
KWT1 112131Z 35011KT 15/M08 A3023 RMK A01 T01481077  RH  020%=      5-min Rain = 0
KWT1 112132Z 01013KT 15/M08 A3023 RMK A01 T01491078  RH  020%=      5-min Rain = 0
KWT1 112133Z 01011KT 15/M08 A3023 RMK A01 T01481080  RH  020%=      5-min Rain = 0
KWT1 112134Z 03009KT 15/M08 A3023 RMK A01 T01491078  RH  020%=      5-min Rain = 0
KWT1 112135Z 02015KT 15/M08 A3023 RMK A01 T01511078  RH  020%=      5-min Rain = 0
KWT1 112136Z 01014KT 15/M08 A3023 RMK A01 T01511079  RH  020%=      5-min Rain = 0
KWT1 112137Z 01015KT 15/M08 A3023 RMK A01 T01511079  RH  020%=      5-min Rain = 0
KWT1 112138Z 35016KT 15/M08 A3023 RMK A01 T01511079  RH  020%=      5-min Rain = 0
KWT1 112139Z 36017KT 15/M08 A3023 RMK A01 T01521080  RH  020%=      5-min Rain = 0
KWT1 112140Z 36018KT 15/M08 A3023 RMK A01 T01511080  RH  020%=      5-min Rain = 0
KWT1 112141Z 35017KT 15/M08 A3023 RMK A01 T01491081  RH  020%=      5-min Rain = 0
KWT1 112142Z 35018KT 15/M08 A3023 RMK A01 T01491080  RH  020%=      5-min Rain = 0
KWT1 112143Z 01014KT 15/M08 A3023 RMK A01 T01501079  RH  020%=      5-min Rain = 0
KWT1 112144Z 01013KT 15/M08 A3023 RMK A01 T01511078  RH  020%=      5-min Rain = 0
KWT1 112145Z 35013KT 15/M08 A3022 RMK A01 T01541077  RH  020%=      5-min Rain = 0
KWT1 112146Z 36014G19KT 15/M08 A3022 RMK A01 T01531078  RH  020%=      5-min Rain = 0
KWT1 112147Z 01014KT 16/M08 A3022 RMK A01 T01551077  RH  020%=      5-min Rain = 0
KWT1 112148Z 36013KT 16/M08 A3022 RMK A01 T01551079  RH  019%=      5-min Rain = 0
KWT1 112149Z 00016KT 15/M08 A3022 RMK A01 T01531079  RH  019%=      5-min Rain = 0
KWT1 112150Z 01015KT 15/M08 A3022 RMK A01 T01511081  RH  019%=      5-min Rain = 0
KWT1 112151Z 01018KT 15/M08 A3022 RMK A01 T01491081  RH  020%=      5-min Rain = 0
KWT1 112152Z 01014KT 15/M08 A3022 RMK A01 T01491080  RH  020%=      5-min Rain = 0
KWT1 112153Z 01012KT 15/M08 A3022 RMK A01 T01481080  RH  020%=      5-min Rain = 0
KWT1 112154Z 03015KT 15/M08 A3022 RMK A01 T01481079  RH  020%=      5-min Rain = 0
KWT1 112155Z 03012KT 15/M08 A3022 RMK A01 T01481079  RH  020%=      5-min Rain = 0
KWT1 112156Z 03011KT 15/M08 A3022 RMK A01 T01481079  RH  020%=      5-min Rain = 0
KWT1 112157Z 02010KT 15/M08 A3022 RMK A01 T01491077  RH  020%=      5-min Rain = 0
KWT1 112158Z 00012G17KT 15/M08 A3022 RMK A01 T01531075  RH  020%=      5-min Rain = 0
KWT1 112159Z 01014KT 15/M08 A3022 RMK A01 T01531078  RH  020%=      5-min Rain = 0
KWT1 112200Z 02012KT 15/M08 A3022 RMK A01 T01491080  RH  020%=      5-min Rain = 0
KWT1 112201Z 02014G19KT 15/M08 A3022 RMK A01 T01481079  RH  020%=      5-min Rain = 0
KWT1 112202Z 02015KT 15/M08 A3022 RMK A01 T01481079  RH  020%=      5-min Rain = 0
KWT1 112203Z 36016KT 15/M08 A3022 RMK A01 T01471078  RH  020%=      5-min Rain = 0
KWT1 112204Z 36014G19KT 15/M08 A3022 RMK A01 T01471078  RH  020%=      5-min Rain = 0
KWT1 112205Z 01014G19KT 15/M08 A3022 RMK A01 T01471077  RH  021%=      5-min Rain = 0
KWT1 112206Z 01018KT 15/M08 A3022 RMK A01 T01481076  RH  020%=      5-min Rain = 0
KWT1 112207Z 00016KT 15/M08 A3022 RMK A01 T01481077  RH  020%=      5-min Rain = 0
KWT1 112208Z 02013KT 15/M08 A3022 RMK A01 T01481077  RH  020%=      5-min Rain = 0
KWT1 112209Z 02010G16KT 15/M07 A3022 RMK A01 T01511074  RH  021%=      5-min Rain = 0
KWT1 112210Z 01011KT 16/M07 A3022 RMK A01 T01561072  RH  020%=      5-min Rain = 0
KWT1 112211Z 02014KT 16/M07 A3022 RMK A01 T01581074  RH  020%=      5-min Rain = 0
KWT1 112212Z 02012KT 16/M08 A3022 RMK A01 T01561076  RH  019%=      5-min Rain = 0
KWT1 112213Z 02013KT 16/M08 A3022 RMK A01 T01551075  RH  020%=      5-min Rain = 0
KWT1 112214Z 01011KT 15/M08 A3022 RMK A01 T01541075  RH  020%=      5-min Rain = 0
KWT1 112215Z 01014KT 16/M08 A3022 RMK A01 T01551075  RH  020%=      5-min Rain = 0
KWT1 112216Z 00017KT 15/M08 A3022 RMK A01 T01541076  RH  020%=      5-min Rain = 0
KWT1 112217Z 35013KT 15/M08 A3022 RMK A01 T01511077  RH  020%=      5-min Rain = 0
KWT1 112218Z 00012KT 15/M08 A3022 RMK A01 T01491077  RH  020%=      5-min Rain = 0
KWT1 112219Z 00012KT 15/M08 A3022 RMK A01 T01471078  RH  020%=      5-min Rain = 0
KWT1 112220Z 00010KT 15/M08 A3022 RMK A01 T01461076  RH  021%=      5-min Rain = 0
KWT1 112221Z 36012KT 15/M08 A3022 RMK A01 T01481075  RH  021%=      5-min Rain = 0
KWT1 112222Z 01013KT 15/M08 A3022 RMK A01 T01491075  RH  021%=      5-min Rain = 0
KWT1 112223Z 01013KT 15/M08 A3022 RMK A01 T01491076  RH  020%=      5-min Rain = 0
KWT1 112224Z 00011KT 15/M08 A3022 RMK A01 T01501075  RH  021%=      5-min Rain = 0
KWT1 112225Z 00014KT 15/M08 A3022 RMK A01 T01521075  RH  020%=      5-min Rain = 0
KWT1 112226Z 01015KT 15/M08 A3022 RMK A01 T01511076  RH  020%=      5-min Rain = 0
KWT1 112227Z 01015KT 15/M08 A3022 RMK A01 T01481078  RH  020%=      5-min Rain = 0
KWT1 112228Z 01012KT 15/M08 A3022 RMK A01 T01471077  RH  021%=      5-min Rain = 0
KWT1 112229Z 01012KT 15/M08 A3022 RMK A01 T01481075  RH  021%=      5-min Rain = 0
KWT1 112230Z 01010KT 15/M08 A3022 RMK A01 T01491075  RH  021%=      5-min Rain = 0
KWT1 112231Z 34013KT 15/M08 A3022 RMK A01 T01491075  RH  021%=      5-min Rain = 0
KWT1 112232Z 34013G18KT 15/M08 A3022 RMK A01 T01481076  RH  021%=      5-min Rain = 0
KWT1 112233Z 00014KT 15/M07 A3022 RMK A01 T01491073  RH  021%=      5-min Rain = 0
KWT1 112234Z 35018KT 15/M07 A3022 RMK A01 T01511074  RH  021%=      5-min Rain = 0
KWT1 112235Z 35015KT 15/M08 A3022 RMK A01 T01491076  RH  020%=      5-min Rain = 0
KWT1 112236Z 35013KT 15/M08 A3022 RMK A01 T01481076  RH  021%=      5-min Rain = 0
KWT1 112237Z 35015KT 15/M08 A3022 RMK A01 T01481075  RH  021%=      5-min Rain = 0
KWT1 112238Z 35010G15KT 15/M08 A3022 RMK A01 T01471076  RH  021%=      5-min Rain = 0
KWT1 112239Z 00012KT 15/M07 A3022 RMK A01 T01501072  RH  021%=      5-min Rain = 0
KWT1 112240Z 36013KT 15/M08 A3022 RMK A01 T01501075  RH  020%=      5-min Rain = 0
KWT1 112241Z 35015KT 15/M08 A3022 RMK A01 T01511075  RH  020%=      5-min Rain = 0
KWT1 112242Z 35014KT 15/M08 A3022 RMK A01 T01511075  RH  020%=      5-min Rain = 0
KWT1 112243Z 35016G21KT 15/M08 A3022 RMK A01 T01501076  RH  020%=      5-min Rain = 0
KWT1 112244Z 00015KT 15/M08 A3022 RMK A01 T01501076  RH  020%=      5-min Rain = 0
KWT1 112245Z 01013KT 15/M08 A3023 RMK A01 T01501076  RH  020%=      5-min Rain = 0
KWT1 112246Z 00016KT 15/M08 A3023 RMK A01 T01511076  RH  020%=      5-min Rain = 0
KWT1 112247Z 01013KT 15/M08 A3023 RMK A01 T01521076  RH  020%=      5-min Rain = 0
KWT1 112248Z 02011KT 15/M08 A3023 RMK A01 T01521076  RH  020%=      5-min Rain = 0
KWT1 112249Z 01012KT 16/M08 A3023 RMK A01 T01551075  RH  020%=      5-min Rain = 0
KWT1 112250Z 01011KT 16/M08 A3023 RMK A01 T01551076  RH  020%=      5-min Rain = 0
KWT1 112251Z 02011KT 15/M08 A3023 RMK A01 T01541078  RH  019%=      5-min Rain = 0
KWT1 112252Z 01010KT 15/M08 A3023 RMK A01 T01531078  RH  020%=      5-min Rain = 0
KWT1 112253Z 00016KT 15/M08 A3023 RMK A01 T01531077  RH  020%=      5-min Rain = 0
KWT1 112254Z 01014KT 15/M08 A3023 RMK A01 T01511078  RH  020%=      5-min Rain = 0
KWT1 112255Z 01015KT 15/M08 A3023 RMK A01 T01501078  RH  020%=      5-min Rain = 0
KWT1 112256Z 01013KT 15/M08 A3023 RMK A01 T01491078  RH  020%=      5-min Rain = 0
KWT1 112257Z 00011KT 15/M08 A3023 RMK A01 T01501077  RH  020%=      5-min Rain = 0
KWT1 112258Z 00011KT 15/M08 A3023 RMK A01 T01501077  RH  020%=      5-min Rain = 0
KWT1 112259Z 01012KT 15/M08 A3023 RMK A01 T01491078  RH  020%=      5-min Rain = 0
KWT1 112300Z 01010KT 15/M08 A3023 RMK A01 T01481080  RH  020%=      5-min Rain = 0
KWT1 112301Z 02013KT 15/M08 A3023 RMK A01 T01491078  RH  020%=      5-min Rain = 0
KWT1 112302Z 01014KT 15/M08 A3023 RMK A01 T01491080  RH  020%=      5-min Rain = 0
KWT1 112303Z 36014G19KT 15/M08 A3023 RMK A01 T01491080  RH  020%=      5-min Rain = 0
KWT1 112304Z 01012KT 15/M08 A3023 RMK A01 T01521078  RH  020%=      5-min Rain = 0
KWT1 112305Z 01013KT 15/M08 A3023 RMK A01 T01531078  RH  019%=      5-min Rain = 0
KWT1 112306Z 01011G16KT 15/M08 A3023 RMK A01 T01531079  RH  019%=      5-min Rain = 0
KWT1 112307Z 01014KT 15/M08 A3023 RMK A01 T01521079  RH  020%=      5-min Rain = 0
KWT1 112308Z 02014KT 15/M08 A3023 RMK A01 T01501080  RH  020%=      5-min Rain = 0
KWT1 112309Z 02014KT 15/M08 A3023 RMK A01 T01501079  RH  020%=      5-min Rain = 0
KWT1 112310Z 01012KT 15/M08 A3023 RMK A01 T01491080  RH  020%=      5-min Rain = 0
KWT1 112311Z 00009KT 15/M08 A3023 RMK A01 T01481079  RH  020%=      5-min Rain = 0
KWT1 112312Z 36011KT 15/M08 A3023 RMK A01 T01501078  RH  020%=      5-min Rain = 0
KWT1 112313Z 36012KT 15/M08 A3023 RMK A01 T01501078  RH  020%=      5-min Rain = 0
KWT1 112314Z 34012KT 15/M08 A3023 RMK A01 T01491078  RH  020%=      5-min Rain = 0
KWT1 112315Z 35012KT 15/M08 A3023 RMK A01 T01501079  RH  020%=      5-min Rain = 0
KWT1 112316Z 01011KT 15/M08 A3023 RMK A01 T01511079  RH  020%=      5-min Rain = 0
KWT1 112317Z 01010KT 15/M08 A3023 RMK A01 T01521079  RH  020%=      5-min Rain = 0
KWT1 112318Z 01011KT 15/M08 A3023 RMK A01 T01531079  RH  019%=      5-min Rain = 0
KWT1 112319Z 01016KT 15/M08 A3023 RMK A01 T01531081  RH  019%=      5-min Rain = 0
KWT1 112320Z 00016KT 15/M08 A3023 RMK A01 T01521083  RH  019%=      5-min Rain = 0
KWT1 112321Z 01015G20KT 15/M08 A3023 RMK A01 T01501084  RH  019%=      5-min Rain = 0
KWT1 112322Z 02013KT 15/M08 A3023 RMK A01 T01501084  RH  019%=      5-min Rain = 0
KWT1 112323Z 01014KT 15/M08 A3023 RMK A01 T01491084  RH  019%=      5-min Rain = 0
KWT1 112324Z 01013KT 15/M08 A3023 RMK A01 T01501083  RH  019%=      5-min Rain = 0
KWT1 112325Z 01013KT 15/M08 A3023 RMK A01 T01501084  RH  019%=      5-min Rain = 0
KWT1 112326Z 01013KT 15/M09 A3023 RMK A01 T01501085  RH  019%=      5-min Rain = 0
KWT1 112327Z 36012KT 15/M08 A3023 RMK A01 T01501083  RH  019%=      5-min Rain = 0
KWT1 112328Z 02012G17KT 15/M08 A3023 RMK A01 T01491083  RH  019%=      5-min Rain = 0
KWT1 112329Z 02015G20KT 15/M08 A3023 RMK A01 T01491084  RH  019%=      5-min Rain = 0
KWT1 112330Z 01015G20KT 15/M09 A3023 RMK A01 T01481085  RH  019%=      5-min Rain = 0
KWT1 112331Z 01013KT 15/M09 A3023 RMK A01 T01461086  RH  019%=      5-min Rain = 0
KWT1 112332Z 36011KT 15/M09 A3023 RMK A01 T01461085  RH  019%=      5-min Rain = 0
KWT1 112333Z 01009KT 15/M08 A3023 RMK A01 T01471084  RH  019%=      5-min Rain = 0
KWT1 112334Z 01009KT 15/M08 A3023 RMK A01 T01471084  RH  019%=      5-min Rain = 0
KWT1 112335Z 02011G16KT 15/M08 A3023 RMK A01 T01481083  RH  019%=      5-min Rain = 0
KWT1 112336Z 02014KT 15/M08 A3023 RMK A01 T01491083  RH  019%=      5-min Rain = 0
KWT1 112337Z 02015KT 15/M08 A3023 RMK A01 T01481083  RH  019%=      5-min Rain = 0
KWT1 112338Z 01012KT 15/M08 A3023 RMK A01 T01471084  RH  019%=      5-min Rain = 0
KWT1 112339Z 00010KT 15/M08 A3023 RMK A01 T01471082  RH  020%=      5-min Rain = 0
KWT1 112340Z 01014KT 15/M08 A3024 RMK A01 T01491082  RH  020%=      5-min Rain = 0
KWT1 112341Z 36014KT 15/M08 A3023 RMK A01 T01491082  RH  020%=      5-min Rain = 0
KWT1 112342Z 35014KT 15/M08 A3023 RMK A01 T01471083  RH  020%=      5-min Rain = 0
KWT1 112343Z 36011KT 15/M08 A3024 RMK A01 T01461083  RH  020%=      5-min Rain = 0
KWT1 112344Z 36014KT 15/M08 A3024 RMK A01 T01471082  RH  020%=      5-min Rain = 0
KWT1 112345Z 01015KT 15/M08 A3024 RMK A01 T01461084  RH  020%=      5-min Rain = 0
KWT1 112346Z 01013KT 15/M09 A3024 RMK A01 T01461085  RH  020%=      5-min Rain = 0
KWT1 112347Z 00015KT 15/M08 A3024 RMK A01 T01451084  RH  020%=      5-min Rain = 0
KWT1 112348Z 01016KT 15/M08 A3024 RMK A01 T01451084  RH  020%=      5-min Rain = 0
KWT1 112349Z 00014KT 15/M08 A3024 RMK A01 T01451083  RH  020%=      5-min Rain = 0
KWT1 112350Z 01013KT 15/M08 A3024 RMK A01 T01451084  RH  020%=      5-min Rain = 0
KWT1 112351Z 01013KT 15/M08 A3024 RMK A01 T01451083  RH  020%=      5-min Rain = 0
KWT1 112352Z 01013KT 15/M08 A3024 RMK A01 T01451082  RH  020%=      5-min Rain = 0
KWT1 112353Z 00012KT 14/M08 A3024 RMK A01 T01441083  RH  020%=      5-min Rain = 0
KWT1 112354Z 01012KT 14/M08 A3024 RMK A01 T01441084  RH  020%=      5-min Rain = 0
KWT1 112355Z 00011KT 14/M08 A3024 RMK A01 T01441084  RH  020%=      5-min Rain = 0
KWT1 112356Z 01011KT 14/M08 A3024 RMK A01 T01441083  RH  020%=      5-min Rain = 0
KWT1 112357Z 01011KT 14/M08 A3024 RMK A01 T01441084  RH  020%=      5-min Rain = 0
KWT1 112358Z 35014KT 14/M09 A3024 RMK A01 T01441085  RH  020%=      5-min Rain = 0
KWT1 112359Z 35016KT 14/M09 A3024 RMK A01 T01441089  RH  019%=      5-min Rain = 0
KWT1 120000Z 36014KT 14/M09 A3024 RMK A01 T01441089  RH  019%=      5-min Rain = 0
KWT1 120001Z 35013KT 14/M09 A3024 RMK A01 T01431090  RH  019%=      5-min Rain = 0
KWT1 120002Z 35014KT 14/M09 A3024 RMK A01 T01431090  RH  019%=      5-min Rain = 0
KWT1 120003Z 35011KT 14/M09 A3024 RMK A01 T01431090  RH  019%=      5-min Rain = 0
KWT1 120004Z 35012KT 14/M09 A3024 RMK A01 T01431089  RH  019%=      5-min Rain = 0
KWT1 120005Z 34011KT 14/M09 A3024 RMK A01 T01431089  RH  019%=      5-min Rain = 0
KWT1 120006Z 35012KT 14/M09 A3024 RMK A01 T01431090  RH  019%=      5-min Rain = 0
KWT1 120007Z 00011KT 14/M09 A3024 RMK A01 T01431090  RH  019%=      5-min Rain = 0
KWT1 120008Z 01009KT 14/M09 A3024 RMK A01 T01431090  RH  019%=      5-min Rain = 0
KWT1 120009Z 02014KT 14/M09 A3024 RMK A01 T01431091  RH  019%=      5-min Rain = 0
KWT1 120010Z 01012KT 14/M09 A3024 RMK A01 T01431094  RH  019%=      5-min Rain = 0
KWT1 120011Z 01012KT 14/M10 A3025 RMK A01 T01421095  RH  018%=      5-min Rain = 0
KWT1 120012Z 01011KT 14/M10 A3025 RMK A01 T01411095  RH  018%=      5-min Rain = 0
KWT1 120013Z 01011KT 14/M10 A3025 RMK A01 T01411096  RH  018%=      5-min Rain = 0
KWT1 120014Z 01011KT 14/M10 A3024 RMK A01 T01401096  RH  018%=      5-min Rain = 0
KWT1 120015Z 00011KT 14/M10 A3025 RMK A01 T01401095  RH  019%=      5-min Rain = 0
KWT1 120016Z 00014KT 14/M10 A3025 RMK A01 T01401095  RH  019%=      5-min Rain = 0
KWT1 120017Z 36012KT 14/M10 A3025 RMK A01 T01401095  RH  019%=      5-min Rain = 0
KWT1 120018Z 35012KT 14/M10 A3025 RMK A01 T01391095  RH  019%=      5-min Rain = 0
KWT1 120019Z 35012KT 14/M10 A3025 RMK A01 T01391095  RH  019%=      5-min Rain = 0
KWT1 120020Z 36010KT 14/M10 A3025 RMK A01 T01391095  RH  019%=      5-min Rain = 0
KWT1 120021Z 01012KT 14/M10 A3025 RMK A01 T01381095  RH  019%=      5-min Rain = 0
KWT1 120022Z 02011KT 14/M10 A3025 RMK A01 T01381096  RH  019%=      5-min Rain = 0
KWT1 120023Z 02012KT 14/M10 A3025 RMK A01 T01381096  RH  019%=      5-min Rain = 0
KWT1 120024Z 01012KT 14/M10 A3025 RMK A01 T01381096  RH  019%=      5-min Rain = 0
KWT1 120025Z 02009KT 14/M10 A3025 RMK A01 T01381096  RH  019%=      5-min Rain = 0
KWT1 120026Z 02008KT 14/M10 A3025 RMK A01 T01381095  RH  019%=      5-min Rain = 0
KWT1 120027Z 01009KT 14/M10 A3025 RMK A01 T01371095  RH  019%=      5-min Rain = 0
KWT1 120028Z 01008KT 14/M10 A3025 RMK A01 T01361096  RH  019%=      5-min Rain = 0
KWT1 120029Z 01009KT 14/M10 A3025 RMK A01 T01361095  RH  019%=      5-min Rain = 0
KWT1 120030Z 01010KT 14/M10 A3025 RMK A01 T01361095  RH  019%=      5-min Rain = 0
KWT1 120031Z 01012KT 14/M10 A3025 RMK A01 T01351095  RH  019%=      5-min Rain = 0
KWT1 120032Z 01009KT 14/M09 A3025 RMK A01 T01351094  RH  019%=      5-min Rain = 0
KWT1 120033Z 01008KT 13/M09 A3025 RMK A01 T01341094  RH  019%=      5-min Rain = 0
KWT1 120034Z 01008KT 13/M09 A3025 RMK A01 T01331094  RH  020%=      5-min Rain = 0
KWT1 120035Z 01009KT 13/M10 A3025 RMK A01 T01311095  RH  020%=      5-min Rain = 0
KWT1 120036Z 01008KT 13/M09 A3025 RMK A01 T01311094  RH  020%=      5-min Rain = 0
KWT1 120037Z 01008KT 13/M10 A3025 RMK A01 T01311095  RH  020%=      5-min Rain = 0
KWT1 120038Z 01008KT 13/M09 A3025 RMK A01 T01311094  RH  020%=      5-min Rain = 0
KWT1 120039Z 36006KT 13/M10 A3025 RMK A01 T01301095  RH  020%=      5-min Rain = 0
KWT1 120040Z 36008KT 13/M10 A3025 RMK A01 T01281095  RH  020%=      5-min Rain = 0
KWT1 120041Z 00008KT 13/M10 A3025 RMK A01 T01281095  RH  020%=      5-min Rain = 0
KWT1 120042Z 00007KT 13/M10 A3025 RMK A01 T01281095  RH  020%=      5-min Rain = 0
KWT1 120043Z 36006KT 13/M10 A3025 RMK A01 T01281095  RH  020%=      5-min Rain = 0
KWT1 120044Z 00006KT 13/M10 A3025 RMK A01 T01271095  RH  020%=      5-min Rain = 0
KWT1 120045Z 00006KT 13/M10 A3026 RMK A01 T01261095  RH  020%=      5-min Rain = 0
KWT1 120046Z 01006KT 13/M10 A3026 RMK A01 T01251095  RH  021%=      5-min Rain = 0
KWT1 120047Z 01006KT 13/M10 A3026 RMK A01 T01251095  RH  021%=      5-min Rain = 0
KWT1 120048Z 01006KT 12/M10 A3026 RMK A01 T01241095  RH  021%=      5-min Rain = 0
KWT1 120049Z 01006KT 12/M10 A3026 RMK A01 T01231095  RH  021%=      5-min Rain = 0
KWT1 120050Z 01007KT 12/M10 A3026 RMK A01 T01231095  RH  021%=      5-min Rain = 0
KWT1 120051Z 01006KT 12/M10 A3026 RMK A01 T01221095  RH  021%=      5-min Rain = 0
KWT1 120052Z 01006KT 12/M10 A3026 RMK A01 T01221095  RH  021%=      5-min Rain = 0
KWT1 120053Z 01006KT 12/M10 A3026 RMK A01 T01221095  RH  021%=      5-min Rain = 0
KWT1 120054Z 01005KT 12/M10 A3026 RMK A01 T01221095  RH  021%=      5-min Rain = 0
KWT1 120055Z 02006KT 12/M10 A3026 RMK A01 T01211096  RH  021%=      5-min Rain = 0
KWT1 120056Z 01006KT 12/M10 A3026 RMK A01 T01201095  RH  021%=      5-min Rain = 0
KWT1 120057Z 01006KT 12/M10 A3026 RMK A01 T01191096  RH  021%=      5-min Rain = 0
KWT1 120058Z 01006KT 12/M10 A3026 RMK A01 T01181096  RH  021%=      5-min Rain = 0
KWT1 120059Z 01006KT 12/M10 A3026 RMK A01 T01181095  RH  021%=      5-min Rain = 0
KWT1 120100Z 01006KT 12/M10 A3026 RMK A01 T01171096  RH  022%=      5-min Rain = 0
KWT1 120101Z 01005KT 12/M10 A3026 RMK A01 T01171095  RH  022%=      5-min Rain = 0
KWT1 120102Z 01006KT 12/M10 A3026 RMK A01 T01161096  RH  022%=      5-min Rain = 0
KWT1 120103Z 02006KT 12/M10 A3026 RMK A01 T01151096  RH  022%=      5-min Rain = 0
KWT1 120104Z 02006KT 11/M10 A3026 RMK A01 T01141096  RH  022%=      5-min Rain = 0
KWT1 120105Z 02006KT 11/M10 A3026 RMK A01 T01141096  RH  022%=      5-min Rain = 0
KWT1 120106Z 02006KT 11/M10 A3026 RMK A01 T01141096  RH  022%=      5-min Rain = 0
KWT1 120107Z 02005KT 12/M10 A3026 RMK A01 T01151095  RH  022%=      5-min Rain = 0
KWT1 120108Z 02005KT 11/M10 A3026 RMK A01 T01141096  RH  022%=      5-min Rain = 0
KWT1 120109Z 02005KT 11/M10 A3026 RMK A01 T01131096  RH  022%=      5-min Rain = 0
KWT1 120110Z 02005KT 11/M10 A3026 RMK A01 T01121096  RH  022%=      5-min Rain = 0
KWT1 120111Z 02006KT 11/M10 A3026 RMK A01 T01121096  RH  022%=      5-min Rain = 0
KWT1 120112Z 02006KT 11/M10 A3026 RMK A01 T01121096  RH  022%=      5-min Rain = 0
KWT1 120113Z 02006KT 11/M10 A3026 RMK A01 T01131096  RH  022%=      5-min Rain = 0
KWT1 120114Z 02006KT 11/M10 A3026 RMK A01 T01131096  RH  022%=      5-min Rain = 0
KWT1 120115Z 02007KT 11/M10 A3026 RMK A01 T01131095  RH  022%=      5-min Rain = 0
KWT1 120116Z 02006KT 11/M10 A3027 RMK A01 T01141096  RH  022%=      5-min Rain = 0
KWT1 120117Z 02006KT 12/M10 A3027 RMK A01 T01151095  RH  022%=      5-min Rain = 0
KWT1 120118Z 02006KT 12/M10 A3027 RMK A01 T01151096  RH  022%=      5-min Rain = 0
KWT1 120119Z 02006KT 12/M10 A3027 RMK A01 T01151096  RH  022%=      5-min Rain = 0
KWT1 120120Z 02006KT 11/M10 A3027 RMK A01 T01141096  RH  022%=      5-min Rain = 0
KWT1 120121Z 02006KT 11/M10 A3027 RMK A01 T01141096  RH  022%=      5-min Rain = 0
KWT1 120122Z 02006KT 11/M10 A3027 RMK A01 T01141097  RH  022%=      5-min Rain = 0
KWT1 120123Z 02007KT 11/M10 A3027 RMK A01 T01131097  RH  022%=      5-min Rain = 0
KWT1 120124Z 02006KT 11/M10 A3027 RMK A01 T01131098  RH  022%=      5-min Rain = 0
KWT1 120125Z 03006KT 11/M10 A3027 RMK A01 T01131098  RH  022%=      5-min Rain = 0
KWT1 120126Z 03006KT 11/M10 A3027 RMK A01 T01121098  RH  022%=      5-min Rain = 0
KWT1 120127Z 03005KT 11/M10 A3027 RMK A01 T01121098  RH  022%=      5-min Rain = 0
KWT1 120128Z 02005KT 11/M10 A3027 RMK A01 T01121098  RH  022%=      5-min Rain = 0
KWT1 120129Z 03005KT 11/M10 A3027 RMK A01 T01111098  RH  022%=      5-min Rain = 0
KWT1 120130Z 03005KT 11/M10 A3027 RMK A01 T01101099  RH  022%=      5-min Rain = 0
KWT1 120131Z 03005KT 11/M10 A3027 RMK A01 T01101098  RH  022%=      5-min Rain = 0
KWT1 120132Z 03005KT 11/M10 A3027 RMK A01 T01091098  RH  022%=      5-min Rain = 0
KWT1 120133Z 03004KT 11/M10 A3027 RMK A01 T01091099  RH  022%=      5-min Rain = 0
KWT1 120134Z 03005KT 11/M10 A3027 RMK A01 T01081099  RH  022%=      5-min Rain = 0
KWT1 120135Z 03005KT 11/M10 A3027 RMK A01 T01081099  RH  022%=      5-min Rain = 0
KWT1 120136Z 02004KT 11/M10 A3027 RMK A01 T01081099  RH  022%=      5-min Rain = 0
KWT1 120137Z 02004KT 11/M10 A3027 RMK A01 T01081098  RH  022%=      5-min Rain = 0
KWT1 120138Z 02003KT 11/M10 A3027 RMK A01 T01081099  RH  022%=      5-min Rain = 0
KWT1 120139Z 02003KT 11/M10 A3027 RMK A01 T01081099  RH  022%=      5-min Rain = 0
KWT1 120140Z 03003KT 11/M10 A3027 RMK A01 T01081100  RH  022%=      5-min Rain = 0
KWT1 120141Z 02003KT 11/M10 A3027 RMK A01 T01071100  RH  022%=      5-min Rain = 0
KWT1 120142Z 02003KT 11/M10 A3027 RMK A01 T01071100  RH  022%=      5-min Rain = 0
KWT1 120143Z 02003KT 11/M10 A3027 RMK A01 T01061100  RH  022%=      5-min Rain = 0
KWT1 120144Z 02003KT 11/M10 A3027 RMK A01 T01071100  RH  022%=      5-min Rain = 0
KWT1 120145Z 02004KT 11/M10 A3027 RMK A01 T01071100  RH  022%=      5-min Rain = 0
KWT1 120146Z 02004KT 11/M10 A3027 RMK A01 T01071100  RH  022%=      5-min Rain = 0
KWT1 120147Z 02004KT 11/M10 A3027 RMK A01 T01071101  RH  022%=      5-min Rain = 0
KWT1 120148Z 02004KT 11/M10 A3027 RMK A01 T01071101  RH  022%=      5-min Rain = 0
KWT1 120149Z 02004KT 11/M10 A3027 RMK A01 T01071101  RH  022%=      5-min Rain = 0
KWT1 120150Z 02004KT 11/M10 A3027 RMK A01 T01061102  RH  022%=      5-min Rain = 0
KWT1 120151Z 02004KT 11/M10 A3027 RMK A01 T01061103  RH  022%=      5-min Rain = 0
KWT1 120152Z 02004KT 11/M10 A3027 RMK A01 T01061103  RH  022%=      5-min Rain = 0
KWT1 120153Z 02004KT 11/M10 A3028 RMK A01 T01051103  RH  022%=      5-min Rain = 0
KWT1 120154Z 02005KT 10/M10 A3028 RMK A01 T01041104  RH  022%=      5-min Rain = 0
KWT1 120155Z 02004KT 10/M10 A3028 RMK A01 T01041104  RH  022%=      5-min Rain = 0
KWT1 120156Z 02004KT 10/M11 A3028 RMK A01 T01031105  RH  022%=      5-min Rain = 0
KWT1 120157Z 02004KT 10/M11 A3028 RMK A01 T01021105  RH  022%=      5-min Rain = 0
KWT1 120158Z 03004KT 10/M11 A3028 RMK A01 T01021105  RH  022%=      5-min Rain = 0
KWT1 120159Z 03004KT 10/M11 A3028 RMK A01 T01011105  RH  022%=      5-min Rain = 0
KWT1 120200Z 03005KT 10/M11 A3028 RMK A01 T01011105  RH  022%=      5-min Rain = 0
KWT1 120201Z 02005KT 10/M11 A3028 RMK A01 T01001105  RH  022%=      5-min Rain = 0
KWT1 120202Z 02005KT 10/M11 A3028 RMK A01 T01001105  RH  022%=      5-min Rain = 0
KWT1 120203Z 03006KT 10/M11 A3028 RMK A01 T01001105  RH  022%=      5-min Rain = 0
KWT1 120204Z 02006KT 10/M11 A3028 RMK A01 T00991105  RH  023%=      5-min Rain = 0
KWT1 120205Z 03007KT 10/M11 A3028 RMK A01 T00981105  RH  023%=      5-min Rain = 0
KWT1 120206Z 03007KT 10/M11 A3028 RMK A01 T00971106  RH  023%=      5-min Rain = 0
KWT1 120207Z 03006KT 10/M11 A3028 RMK A01 T00971106  RH  023%=      5-min Rain = 0
KWT1 120208Z 03006KT 10/M11 A3028 RMK A01 T00971106  RH  023%=      5-min Rain = 0
KWT1 120209Z 02006KT 10/M11 A3028 RMK A01 T00971107  RH  022%=      5-min Rain = 0
KWT1 120210Z 03006KT 10/M11 A3029 RMK A01 T00981109  RH  022%=      5-min Rain = 0
KWT1 120211Z 03006KT 10/M11 A3029 RMK A01 T00991109  RH  022%=      5-min Rain = 0
KWT1 120212Z 03006KT 10/M11 A3029 RMK A01 T00991109  RH  022%=      5-min Rain = 0
KWT1 120213Z 03006KT 10/M11 A3029 RMK A01 T00991110  RH  022%=      5-min Rain = 0
KWT1 120214Z 03006KT 10/M11 A3029 RMK A01 T00991111  RH  022%=      5-min Rain = 0
KWT1 120215Z 03005KT 10/M11 A3029 RMK A01 T00991111  RH  022%=      5-min Rain = 0
KWT1 120216Z 03006KT 10/M11 A3029 RMK A01 T00981112  RH  021%=      5-min Rain = 0
KWT1 120217Z 03005KT 10/M11 A3029 RMK A01 T00991113  RH  021%=      5-min Rain = 0
KWT1 120218Z 03006KT 10/M11 A3029 RMK A01 T00991113  RH  021%=      5-min Rain = 0
KWT1 120219Z 02007KT 10/M11 A3029 RMK A01 T00991114  RH  021%=      5-min Rain = 0
KWT1 120220Z 03005KT 10/M12 A3029 RMK A01 T00991115  RH  021%=      5-min Rain = 0
KWT1 120221Z 03006KT 10/M12 A3029 RMK A01 T01001115  RH  021%=      5-min Rain = 0
KWT1 120222Z 03006KT 10/M12 A3029 RMK A01 T01001115  RH  021%=      5-min Rain = 0
KWT1 120223Z 02006KT 10/M12 A3029 RMK A01 T01001115  RH  021%=      5-min Rain = 0
KWT1 120224Z 03006KT 10/M12 A3029 RMK A01 T01001116  RH  021%=      5-min Rain = 0
KWT1 120225Z 03006KT 10/M12 A3029 RMK A01 T00991116  RH  021%=      5-min Rain = 0
KWT1 120226Z 03006KT 10/M12 A3029 RMK A01 T00991117  RH  021%=      5-min Rain = 0
KWT1 120227Z 03006KT 10/M12 A3029 RMK A01 T00991117  RH  020%=      5-min Rain = 0
KWT1 120228Z 04006KT 10/M12 A3029 RMK A01 T00991118  RH  020%=      5-min Rain = 0
KWT1 120229Z 03006KT 10/M12 A3029 RMK A01 T00991119  RH  020%=      5-min Rain = 0
KWT1 120230Z 04006KT 10/M12 A3029 RMK A01 T00991120  RH  020%=      5-min Rain = 0
KWT1 120231Z 03007KT 10/M12 A3029 RMK A01 T00981120  RH  020%=      5-min Rain = 0
KWT1 120232Z 04007KT 10/M12 A3029 RMK A01 T00971123  RH  020%=      5-min Rain = 0
KWT1 120233Z 03008KT 10/M12 A3029 RMK A01 T00981123  RH  020%=      5-min Rain = 0
KWT1 120234Z 03007KT 10/M12 A3029 RMK A01 T00981123  RH  020%=      5-min Rain = 0
KWT1 120235Z 03007KT 10/M12 A3029 RMK A01 T00981124  RH  020%=      5-min Rain = 0
KWT1 120236Z 03007KT 10/M12 A303 RMK A01 T00981124  RH  020%=      5-min Rain = 0
KWT1 120237Z 03006KT 10/M13 A303 RMK A01 T00981126  RH  019%=      5-min Rain = 0
KWT1 120238Z 03006KT 10/M13 A303 RMK A01 T00971126  RH  019%=      5-min Rain = 0
KWT1 120239Z 04007KT 10/M13 A303 RMK A01 T00961127  RH  019%=      5-min Rain = 0
KWT1 120240Z 03006KT 10/M13 A303 RMK A01 T00971128  RH  019%=      5-min Rain = 0
KWT1 120241Z 03008KT 10/M13 A303 RMK A01 T00971128  RH  019%=      5-min Rain = 0
KWT1 120242Z 03007KT 10/M13 A303 RMK A01 T00971128  RH  019%=      5-min Rain = 0
KWT1 120243Z 03007KT 10/M13 A303 RMK A01 T00961129  RH  019%=      5-min Rain = 0
KWT1 120244Z 03006KT 10/M13 A303 RMK A01 T00961129  RH  019%=      5-min Rain = 0
KWT1 120245Z 03007KT 10/M13 A303 RMK A01 T00951129  RH  019%=      5-min Rain = 0
KWT1 120246Z 03006KT 09/M13 A303 RMK A01 T00941129  RH  019%=      5-min Rain = 0
KWT1 120247Z 03007KT 09/M13 A303 RMK A01 T00941129  RH  019%=      5-min Rain = 0
KWT1 120248Z 04007KT 09/M13 A303 RMK A01 T00941129  RH  019%=      5-min Rain = 0
KWT1 120249Z 04007KT 09/M13 A303 RMK A01 T00941129  RH  019%=      5-min Rain = 0
KWT1 120250Z 03008KT 09/M13 A303 RMK A01 T00941129  RH  019%=      5-min Rain = 0
KWT1 120251Z 04007KT 09/M13 A303 RMK A01 T00941129  RH  019%=      5-min Rain = 0
KWT1 120252Z 03007KT 10/M13 A303 RMK A01 T00951129  RH  019%=      5-min Rain = 0
KWT1 120253Z 03007KT 10/M13 A303 RMK A01 T00951128  RH  019%=      5-min Rain = 0
KWT1 120254Z 03007KT 09/M13 A303 RMK A01 T00941128  RH  019%=      5-min Rain = 0
KWT1 120255Z 03007KT 09/M13 A303 RMK A01 T00931129  RH  019%=      5-min Rain = 0
KWT1 120256Z 03006KT 09/M13 A303 RMK A01 T00931129  RH  019%=      5-min Rain = 0
KWT1 120257Z 03007KT 09/M13 A303 RMK A01 T00931128  RH  020%=      5-min Rain = 0
KWT1 120258Z 03007KT 09/M13 A303 RMK A01 T00931127  RH  020%=      5-min Rain = 0
KWT1 120259Z 03006KT 09/M13 A303 RMK A01 T00931127  RH  020%=      5-min Rain = 0
KWT1 120300Z 03007KT 09/M13 A303 RMK A01 T00921127  RH  020%=      5-min Rain = 0
KWT1 120301Z 03007KT 09/M13 A303 RMK A01 T00921128  RH  020%=      5-min Rain = 0
KWT1 120302Z 03007KT 09/M13 A303 RMK A01 T00931128  RH  020%=      5-min Rain = 0
KWT1 120303Z 03007KT 09/M13 A303 RMK A01 T00931127  RH  020%=      5-min Rain = 0
KWT1 120304Z 03005KT 09/M13 A303 RMK A01 T00931128  RH  020%=      5-min Rain = 0
KWT1 120305Z 02005KT 09/M13 A303 RMK A01 T00931128  RH  020%=      5-min Rain = 0
KWT1 120306Z 03005KT 09/M13 A3031 RMK A01 T00931128  RH  020%=      5-min Rain = 0
KWT1 120307Z 03005KT 09/M13 A3031 RMK A01 T00931128  RH  020%=      5-min Rain = 0
KWT1 120308Z 03005KT 09/M13 A3031 RMK A01 T00931128  RH  020%=      5-min Rain = 0
KWT1 120309Z 03005KT 09/M13 A3031 RMK A01 T00931127  RH  020%=      5-min Rain = 0
KWT1 120310Z 02005KT 09/M13 A3031 RMK A01 T00931127  RH  020%=      5-min Rain = 0
KWT1 120311Z 02005KT 09/M13 A3031 RMK A01 T00931127  RH  020%=      5-min Rain = 0
KWT1 120312Z 02005KT 09/M13 A3031 RMK A01 T00931127  RH  020%=      5-min Rain = 0
KWT1 120313Z 02005KT 09/M13 A3031 RMK A01 T00931127  RH  020%=      5-min Rain = 0
KWT1 120314Z 02004KT 09/M13 A3031 RMK A01 T00941126  RH  020%=      5-min Rain = 0
KWT1 120315Z 02005KT 09/M13 A3031 RMK A01 T00931127  RH  020%=      5-min Rain = 0
KWT1 120316Z 02005KT 09/M13 A3031 RMK A01 T00931127  RH  020%=      5-min Rain = 0
KWT1 120317Z 02005KT 09/M13 A3031 RMK A01 T00931126  RH  020%=      5-min Rain = 0
KWT1 120318Z 03005KT 09/M13 A3031 RMK A01 T00931126  RH  020%=      5-min Rain = 0
KWT1 120319Z 02005KT 09/M13 A3031 RMK A01 T00931125  RH  020%=      5-min Rain = 0
KWT1 120320Z 02006KT 09/M12 A3031 RMK A01 T00931124  RH  020%=      5-min Rain = 0
KWT1 120321Z 02006KT 09/M12 A3031 RMK A01 T00941123  RH  020%=      5-min Rain = 0
KWT1 120322Z 02005KT 09/M12 A3031 RMK A01 T00941123  RH  020%=      5-min Rain = 0
KWT1 120323Z 02004KT 10/M12 A3031 RMK A01 T00951124  RH  020%=      5-min Rain = 0
KWT1 120324Z 03005KT 10/M12 A3031 RMK A01 T00951123  RH  020%=      5-min Rain = 0
KWT1 120325Z 02005KT 10/M12 A3031 RMK A01 T00951123  RH  020%=      5-min Rain = 0
KWT1 120326Z 02005KT 10/M12 A3031 RMK A01 T00951122  RH  020%=      5-min Rain = 0
KWT1 120327Z 02005KT 09/M12 A3031 RMK A01 T00941123  RH  020%=      5-min Rain = 0
KWT1 120328Z 02005KT 09/M12 A3031 RMK A01 T00941123  RH  020%=      5-min Rain = 0
KWT1 120329Z 02004KT 09/M12 A3031 RMK A01 T00941123  RH  020%=      5-min Rain = 0
KWT1 120330Z 02004KT 09/M12 A3031 RMK A01 T00941123  RH  020%=      5-min Rain = 0
KWT1 120331Z 02004KT 10/M12 A3032 RMK A01 T00951123  RH  020%=      5-min Rain = 0
KWT1 120332Z 01004KT 10/M12 A3032 RMK A01 T00951123  RH  020%=      5-min Rain = 0
KWT1 120333Z 02005KT 10/M12 A3032 RMK A01 T00951123  RH  020%=      5-min Rain = 0
KWT1 120334Z 01004KT 10/M12 A3032 RMK A01 T00951124  RH  020%=      5-min Rain = 0
KWT1 120335Z 01004KT 10/M12 A3032 RMK A01 T00951124  RH  020%=      5-min Rain = 0
KWT1 120336Z 01004KT 10/M12 A3032 RMK A01 T00951124  RH  020%=      5-min Rain = 0
KWT1 120337Z 01004KT 10/M12 A3032 RMK A01 T00951124  RH  020%=      5-min Rain = 0
KWT1 120338Z 01004KT 10/M12 A3032 RMK A01 T00951123  RH  020%=      5-min Rain = 0
KWT1 120339Z 01004KT 09/M12 A3032 RMK A01 T00941124  RH  020%=      5-min Rain = 0
KWT1 120340Z 02004KT 10/M12 A3032 RMK A01 T00951124  RH  020%=      5-min Rain = 0
KWT1 120341Z 02005KT 09/M12 A3032 RMK A01 T00941124  RH  020%=      5-min Rain = 0
KWT1 120342Z 02004KT 09/M12 A3032 RMK A01 T00941124  RH  020%=      5-min Rain = 0
KWT1 120343Z 02004KT 09/M12 A3032 RMK A01 T00941123  RH  020%=      5-min Rain = 0
KWT1 120344Z 02004KT 09/M12 A3032 RMK A01 T00931124  RH  020%=      5-min Rain = 0
KWT1 120345Z 02005KT 09/M12 A3032 RMK A01 T00931123  RH  020%=      5-min Rain = 0
KWT1 120346Z 02004KT 09/M12 A3032 RMK A01 T00931122  RH  020%=      5-min Rain = 0
KWT1 120347Z 02005KT 09/M12 A3032 RMK A01 T00921122  RH  021%=      5-min Rain = 0
KWT1 120348Z 01005KT 09/M12 A3032 RMK A01 T00921122  RH  021%=      5-min Rain = 0
KWT1 120349Z 02005KT 09/M12 A3032 RMK A01 T00921122  RH  021%=      5-min Rain = 0
KWT1 120350Z 02005KT 09/M12 A3032 RMK A01 T00921121  RH  021%=      5-min Rain = 0
KWT1 120351Z 01006KT 09/M12 A3032 RMK A01 T00921121  RH  021%=      5-min Rain = 0
KWT1 120352Z 02005KT 09/M12 A3032 RMK A01 T00931121  RH  021%=      5-min Rain = 0
KWT1 120353Z 02005KT 09/M12 A3032 RMK A01 T00931121  RH  021%=      5-min Rain = 0
KWT1 120354Z 02006KT 09/M12 A3032 RMK A01 T00931121  RH  021%=      5-min Rain = 0
KWT1 120355Z 02005KT 09/M12 A3033 RMK A01 T00931121  RH  021%=      5-min Rain = 0
KWT1 120356Z 02005KT 09/M12 A3033 RMK A01 T00931121  RH  021%=      5-min Rain = 0
KWT1 120357Z 02006KT 09/M12 A3033 RMK A01 T00931121  RH  021%=      5-min Rain = 0
KWT1 120358Z 02005KT 09/M12 A3033 RMK A01 T00931121  RH  021%=      5-min Rain = 0
KWT1 120359Z 02005KT 09/M12 A3033 RMK A01 T00931121  RH  021%=      5-min Rain = 0
KWT1 120400Z 02005KT 09/M12 A3033 RMK A01 T00921120  RH  021%=      5-min Rain = 0
KWT1 120401Z 02005KT 09/M12 A3033 RMK A01 T00921120  RH  021%=      5-min Rain = 0
KWT1 120402Z 02005KT 09/M12 A3033 RMK A01 T00911121  RH  021%=      5-min Rain = 0
KWT1 120403Z 02005KT 09/M12 A3033 RMK A01 T00911121  RH  021%=      5-min Rain = 0
KWT1 120404Z 02005KT 09/M12 A3033 RMK A01 T00911120  RH  021%=      5-min Rain = 0
KWT1 120405Z 02005KT 09/M12 A3033 RMK A01 T00911119  RH  021%=      5-min Rain = 0
KWT1 120406Z 02004KT 09/M12 A3033 RMK A01 T00911119  RH  021%=      5-min Rain = 0
KWT1 120407Z 02005KT 09/M12 A3033 RMK A01 T00901120  RH  021%=      5-min Rain = 0
KWT1 120408Z 02005KT 09/M12 A3033 RMK A01 T00901119  RH  021%=      5-min Rain = 0
KWT1 120409Z 02005KT 09/M12 A3033 RMK A01 T00901119  RH  021%=      5-min Rain = 0
KWT1 120410Z 02005KT 09/M12 A3033 RMK A01 T00901119  RH  021%=      5-min Rain = 0
KWT1 120411Z 02004KT 09/M12 A3033 RMK A01 T00891119  RH  022%=      5-min Rain = 0
KWT1 120412Z 02004KT 09/M12 A3033 RMK A01 T00891120  RH  022%=      5-min Rain = 0
KWT1 120413Z 02004KT 09/M12 A3033 RMK A01 T00891120  RH  022%=      5-min Rain = 0
KWT1 120414Z 02004KT 09/M12 A3033 RMK A01 T00891120  RH  022%=      5-min Rain = 0
KWT1 120415Z 02004KT 09/M12 A3033 RMK A01 T00881120  RH  022%=      5-min Rain = 0
KWT1 120416Z 02004KT 09/M12 A3033 RMK A01 T00881120  RH  022%=      5-min Rain = 0
KWT1 120417Z 01004KT 09/M12 A3033 RMK A01 T00881120  RH  022%=      5-min Rain = 0
KWT1 120418Z 02004KT 09/M12 A3033 RMK A01 T00871119  RH  022%=      5-min Rain = 0
KWT1 120419Z 02004KT 09/M12 A3033 RMK A01 T00871119  RH  022%=      5-min Rain = 0
KWT1 120420Z 02004KT 09/M12 A3033 RMK A01 T00871118  RH  022%=      5-min Rain = 0
KWT1 120421Z 03004KT 09/M12 A3033 RMK A01 T00871118  RH  022%=      5-min Rain = 0
KWT1 120422Z 03004KT 09/M12 A3033 RMK A01 T00871117  RH  022%=      5-min Rain = 0
KWT1 120423Z 03004KT 09/M12 A3033 RMK A01 T00861117  RH  022%=      5-min Rain = 0
KWT1 120424Z 03004KT 09/M12 A3033 RMK A01 T00861117  RH  023%=      5-min Rain = 0
KWT1 120425Z 03004KT 09/M12 A3033 RMK A01 T00861116  RH  023%=      5-min Rain = 0
KWT1 120426Z 04004KT 09/M12 A3033 RMK A01 T00861116  RH  023%=      5-min Rain = 0
KWT1 120427Z 03004KT 09/M12 A3033 RMK A01 T00861115  RH  023%=      5-min Rain = 0
KWT1 120428Z 03003KT 09/M12 A3033 RMK A01 T00851115  RH  023%=      5-min Rain = 0
KWT1 120429Z 03004KT 09/M11 A3033 RMK A01 T00851114  RH  023%=      5-min Rain = 0
KWT1 120430Z 03004KT 09/M11 A3033 RMK A01 T00851114  RH  023%=      5-min Rain = 0
KWT1 120431Z 03004KT 09/M11 A3033 RMK A01 T00851114  RH  023%=      5-min Rain = 0
KWT1 120432Z 03005KT 09/M11 A3033 RMK A01 T00851113  RH  023%=      5-min Rain = 0
KWT1 120433Z 03005KT 09/M11 A3033 RMK A01 T00851112  RH  023%=      5-min Rain = 0
KWT1 120434Z 04004KT 08/M11 A3033 RMK A01 T00841112  RH  024%=      5-min Rain = 0
KWT1 120435Z 03005KT 08/M11 A3033 RMK A01 T00841112  RH  024%=      5-min Rain = 0
KWT1 120436Z 03004KT 08/M11 A3033 RMK A01 T00841112  RH  024%=      5-min Rain = 0
KWT1 120437Z 03004KT 08/M11 A3034 RMK A01 T00831112  RH  024%=      5-min Rain = 0
KWT1 120438Z 03004KT 08/M11 A3034 RMK A01 T00821112  RH  024%=      5-min Rain = 0
KWT1 120439Z 03004KT 08/M11 A3034 RMK A01 T00811112  RH  024%=      5-min Rain = 0
KWT1 120440Z 03004KT 08/M11 A3034 RMK A01 T00811112  RH  024%=      5-min Rain = 0
KWT1 120441Z 03004KT 08/M11 A3034 RMK A01 T00811112  RH  024%=      5-min Rain = 0
KWT1 120442Z 03005KT 08/M11 A3034 RMK A01 T00801112  RH  024%=      5-min Rain = 0
KWT1 120443Z 03004KT 08/M11 A3034 RMK A01 T00801112  RH  024%=      5-min Rain = 0
KWT1 120444Z 03004KT 08/M11 A3034 RMK A01 T00791113  RH  024%=      5-min Rain = 0
KWT1 120445Z 03004KT 08/M11 A3034 RMK A01 T00781113  RH  024%=      5-min Rain = 0
KWT1 120446Z 02005KT 08/M11 A3034 RMK A01 T00781113  RH  025%=      5-min Rain = 0
KWT1 120447Z 03005KT 08/M11 A3034 RMK A01 T00781112  RH  025%=      5-min Rain = 0
KWT1 120448Z 03005KT 08/M11 A3034 RMK A01 T00781112  RH  025%=      5-min Rain = 0
KWT1 120449Z 03004KT 08/M11 A3034 RMK A01 T00781112  RH  025%=      5-min Rain = 0
KWT1 120450Z 03005KT 08/M11 A3034 RMK A01 T00781112  RH  025%=      5-min Rain = 0
KWT1 120451Z 03005KT 08/M11 A3034 RMK A01 T00781112  RH  025%=      5-min Rain = 0
KWT1 120452Z 03005KT 08/M11 A3034 RMK A01 T00781111  RH  025%=      5-min Rain = 0
KWT1 120453Z 03005KT 08/M11 A3034 RMK A01 T00781111  RH  025%=      5-min Rain = 0
KWT1 120454Z 03005KT 08/M11 A3034 RMK A01 T00781110  RH  025%=      5-min Rain = 0
KWT1 120455Z 03005KT 08/M11 A3034 RMK A01 T00771110  RH  025%=      5-min Rain = 0
KWT1 120456Z 03005KT 08/M11 A3034 RMK A01 T00761109  RH  025%=      5-min Rain = 0
KWT1 120457Z 03005KT 08/M11 A3034 RMK A01 T00751108  RH  026%=      5-min Rain = 0
KWT1 120458Z 03006KT 08/M11 A3034 RMK A01 T00751107  RH  026%=      5-min Rain = 0
KWT1 120459Z 03006KT 07/M11 A3034 RMK A01 T00741107  RH  026%=      5-min Rain = 0

Page generated in 0.1528 seconds.